Wetterdaten: Montag, 07.07.2014
Datum Zeit Temp. Aussen +5cm Feuchte Auss Luftdruck Regen Sonnenschein Regendauer UV Solar Windben
07.07.2014 00:00 15,8 C 14,4 C 95 % 1011,1 hPa 0,0 l/m 0 min 0 min 0,0 UV-I 0 W/m 10,5 km/h (2 Bft)
07.07.2014 00:02 15,8 C 14,4 C 95 % 1011,1 hPa 0,0 l/m 0 min 0 min 0,0 UV-I 0 W/m 6,3 km/h (2 Bft)
07.07.2014 00:05 15,8 C 14,4 C 95 % 1011,2 hPa 0,0 l/m 0 min 0 min 0,0 UV-I 0 W/m 6,3 km/h (2 Bft)
07.07.2014 00:06 15,9 C 14,4 C 95 % 1011,2 hPa 0,0 l/m 0 min 0 min 0,0 UV-I 0 W/m 0,0 km/h (0 Bft)
07.07.2014 00:08 15,9 C 14,4 C 95 % 1011,2 hPa 0,0 l/m 0 min 0 min 0,0 UV-I 0 W/m 8,4 km/h (2 Bft)
07.07.2014 00:10 15,8 C 14,4 C 95 % 1011,2 hPa 0,0 l/m 0 min 0 min 0,0 UV-I 0 W/m 14,6 km/h (3 Bft)
07.07.2014 00:12 15,8 C 14,4 C 95 % 1011,3 hPa 0,0 l/m 0 min 0 min 0,0 UV-I 0 W/m 8,4 km/h (2 Bft)
07.07.2014 00:14 15,8 C 14,4 C 95 % 1011,2 hPa 0,0 l/m 0 min 0 min 0,0 UV-I 0 W/m 8,4 km/h (2 Bft)
07.07.2014 00:16 15,8 C 14,4 C 95 % 1011,2 hPa 0,0 l/m 0 min 0 min 0,0 UV-I 0 W/m 8,4 km/h (2 Bft)
07.07.2014 00:18 15,8 C 14,4 C 95 % 1011,3 hPa 0,0 l/m 0 min 0 min 0,0 UV-I 0 W/m 2,1 km/h (1 Bft)
07.07.2014 00:20 15,8 C 14,4 C 95 % 1011,3 hPa 0,0 l/m 0 min 0 min 0,0 UV-I 0 W/m 8,4 km/h (2 Bft)
07.07.2014 00:22 15,8 C 14,4 C 95 % 1011,4 hPa 0,0 l/m 0 min 0 min 0,0 UV-I 0 W/m 14,6 km/h (3 Bft)
07.07.2014 00:24 15,7 C 14,4 C 95 % 1011,3 hPa 0,0 l/m 0 min 0 min 0,0 UV-I 0 W/m 10,5 km/h (2 Bft)
07.07.2014 00:26 15,8 C 14,4 C 95 % 1011,4 hPa 0,0 l/m 0 min 0 min 0,0 UV-I 0 W/m 6,3 km/h (2 Bft)
07.07.2014 00:28 15,8 C 14,4 C 95 % 1011,4 hPa 0,0 l/m 0 min 0 min 0,0 UV-I 0 W/m 0,0 km/h (0 Bft)
07.07.2014 00:30 15,8 C 14,4 C 95 % 1011,4 hPa 0,0 l/m 0 min 0 min 0,0 UV-I 0 W/m 2,1 km/h (1 Bft)
07.07.2014 00:32 15,8 C 14,4 C 95 % 1011,4 hPa 0,0 l/m 0 min 0 min 0,0 UV-I 0 W/m 10,5 km/h (2 Bft)
07.07.2014 00:34 15,7 C 14,4 C 95 % 1011,5 hPa 0,0 l/m 0 min 0 min 0,0 UV-I 0 W/m 10,5 km/h (2 Bft)
07.07.2014 00:36 15,7 C 14,4 C 95 % 1011,5 hPa 0,0 l/m 0 min 0 min 0,0 UV-I 0 W/m 12,6 km/h (3 Bft)
07.07.2014 00:38 15,7 C 14,4 C 95 % 1011,5 hPa 0,0 l/m 0 min 0 min 0,0 UV-I 0 W/m 18,8 km/h (3 Bft)
07.07.2014 00:40 15,7 C 14,4 C 95 % 1011,5 hPa 0,0 l/m 0 min 0 min 0,0 UV-I 0 W/m 14,6 km/h (3 Bft)
07.07.2014 00:42 15,6 C 14,4 C 95 % 1011,6 hPa 0,0 l/m 0 min 0 min 0,0 UV-I 0 W/m 14,6 km/h (3 Bft)
07.07.2014 00:44 15,6 C 13,9 C 95 % 1011,5 hPa 0,0 l/m 0 min 0 min 0,0 UV-I 0 W/m 10,5 km/h (2 Bft)
07.07.2014 00:46 15,6 C 14,4 C 95 % 1011,6 hPa 0,0 l/m 0 min 0 min 0,0 UV-I 0 W/m 6,3 km/h (2 Bft)
07.07.2014 00:48 15,6 C 14,4 C 95 % 1011,6 hPa 0,0 l/m 0 min 0 min 0,0 UV-I 0 W/m 4,2 km/h (1 Bft)
07.07.2014 00:50 15,6 C 14,4 C 95 % 1011,6 hPa 0,0 l/m 0 min 0 min 0,0 UV-I 0 W/m 8,4 km/h (2 Bft)
07.07.2014 00:52 15,6 C 13,9 C 95 % 1011,7 hPa 0,0 l/m 0 min 0 min 0,0 UV-I 0 W/m 16,7 km/h (3 Bft)
07.07.2014 00:54 15,5 C 13,9 C 95 % 1011,8 hPa 0,0 l/m 0 min 0 min 0,0 UV-I 0 W/m 12,6 km/h (3 Bft)
07.07.2014 00:56 15,4 C 13,9 C 95 % 1011,8 hPa 0,0 l/m 0 min 0 min 0,0 UV-I 0 W/m 10,5 km/h (2 Bft)
07.07.2014 00:58 15,4 C 13,9 C 95 % 1011,7 hPa 0,0 l/m 0 min 0 min 0,0 UV-I 0 W/m 6,3 km/h (2 Bft)
07.07.2014 01:00 15,4 C 13,9 C 95 % 1011,7 hPa 0,0 l/m 0 min 0 min 0,0 UV-I 0 W/m 12,6 km/h (3 Bft)
07.07.2014 01:02 15,4 C 13,9 C 95 % 1011,7 hPa 0,0 l/m 0 min 0 min 0,0 UV-I 0 W/m 6,3 km/h (2 Bft)
07.07.2014 01:04 15,4 C 13,9 C 95 % 1011,7 hPa 0,0 l/m 0 min 0 min 0,0 UV-I 0 W/m 2,1 km/h (1 Bft)
07.07.2014 01:06 15,4 C 13,9 C 94 % 1011,8 hPa 0,0 l/m 0 min 0 min 0,0 UV-I 0 W/m 8,4 km/h (2 Bft)
07.07.2014 01:08 15,4 C 13,9 C 94 % 1011,8 hPa 0,0 l/m 0 min 0 min 0,0 UV-I 0 W/m 2,1 km/h (1 Bft)
07.07.2014 01:10 15,4 C 13,9 C 94 % 1011,9 hPa 0,0 l/m 0 min 0 min 0,0 UV-I 0 W/m 10,5 km/h (2 Bft)
07.07.2014 01:12 15,4 C 13,9 C 94 % 1011,9 hPa 0,0 l/m 0 min 0 min 0,0 UV-I 0 W/m 8,4 km/h (2 Bft)
07.07.2014 01:14 15,4 C 13,9 C 94 % 1011,9 hPa 0,0 l/m 0 min 0 min 0,0 UV-I 0 W/m 4,2 km/h (1 Bft)
07.07.2014 01:16 15,4 C 13,9 C 94 % 1011,9 hPa 0,0 l/m 0 min 0 min 0,0 UV-I 0 W/m 6,3 km/h (2 Bft)
07.07.2014 01:18 15,4 C 13,9 C 94 % 1012,0 hPa 0,0 l/m 0 min 0 min 0,0 UV-I 0 W/m 2,1 km/h (1 Bft)
07.07.2014 01:20 15,4 C 14,4 C 94 % 1012,2 hPa 0,0 l/m 0 min 0 min 0,0 UV-I 0 W/m 8,4 km/h (2 Bft)
07.07.2014 01:22 15,4 C 14,4 C 94 % 1012,2 hPa 0,0 l/m 0 min 0 min 0,0 UV-I 0 W/m 4,2 km/h (1 Bft)
07.07.2014 01:24 15,4 C 13,9 C 94 % 1012,3 hPa 0,0 l/m 0 min 0 min 0,0 UV-I 0 W/m 6,3 km/h (2 Bft)
07.07.2014 01:26 15,4 C 13,9 C 94 % 1012,4 hPa 0,0 l/m 0 min 0 min 0,0 UV-I 0 W/m 6,3 km/h (2 Bft)
07.07.2014 01:28 15,4 C 13,9 C 95 % 1012,5 hPa 0,0 l/m 0 min 0 min 0,0 UV-I 0 W/m 10,5 km/h (2 Bft)
07.07.2014 01:30 15,4 C 13,9 C 95 % 1012,5 hPa 0,0 l/m 0 min 0 min 0,0 UV-I 0 W/m 8,4 km/h (2 Bft)
07.07.2014 01:32 15,5 C 14,4 C 95 % 1012,6 hPa 0,0 l/m 0 min 0 min 0,0 UV-I 0 W/m 10,5 km/h (2 Bft)
07.07.2014 01:34 15,5 C 14,4 C 95 % 1012,5 hPa 0,0 l/m 0 min 0 min 0,0 UV-I 0 W/m 12,6 km/h (3 Bft)
07.07.2014 01:36 15,5 C 13,9 C 95 % 1012,5 hPa 0,0 l/m 0 min 0 min 0,0 UV-I 0 W/m 10,5 km/h (2 Bft)
07.07.2014 01:38 15,5 C 13,9 C 95 % 1012,6 hPa 0,0 l/m 0 min 0 min 0,0 UV-I 0 W/m 12,6 km/h (3 Bft)
07.07.2014 01:40 15,6 C 14,4 C 95 % 1012,7 hPa 0,0 l/m 0 min 0 min 0,0 UV-I 0 W/m 16,7 km/h (3 Bft)
07.07.2014 01:42 15,5 C 14,4 C 95 % 1012,7 hPa 0,0 l/m 0 min 0 min 0,0 UV-I 0 W/m 12,6 km/h (3 Bft)
07.07.2014 01:44 15,5 C 13,9 C 95 % 1012,8 hPa 0,0 l/m 0 min 0 min 0,0 UV-I 0 W/m 12,6 km/h (3 Bft)
07.07.2014 01:46 15,4 C 13,9 C 95 % 1012,9 hPa 0,0 l/m 0 min 0 min 0,0 UV-I 0 W/m 16,7 km/h (3 Bft)
07.07.2014 01:48 15,5 C 13,9 C 95 % 1012,9 hPa 0,0 l/m 0 min 0 min 0,0 UV-I 0 W/m 12,6 km/h (3 Bft)
07.07.2014 01:50 15,4 C 13,9 C 95 % 1013,0 hPa 0,0 l/m 0 min 0 min 0,0 UV-I 0 W/m 16,7 km/h (3 Bft)
07.07.2014 01:52 15,4 C 13,9 C 95 % 1013,0 hPa 0,0 l/m 0 min 0 min 0,0 UV-I 0 W/m 12,6 km/h (3 Bft)
07.07.2014 01:54 15,4 C 13,9 C 95 % 1012,9 hPa 0,0 l/m 0 min 0 min 0,0 UV-I 0 W/m 14,6 km/h (3 Bft)
07.07.2014 01:56 15,4 C 13,9 C 95 % 1013,0 hPa 0,0 l/m 0 min 0 min 0,0 UV-I 0 W/m 12,6 km/h (3 Bft)
07.07.2014 01:58 15,4 C 13,9 C 95 % 1013,0 hPa 0,0 l/m 0 min 0 min 0,0 UV-I 0 W/m 18,8 km/h (3 Bft)
07.07.2014 02:00 15,3 C 13,9 C 95 % 1013,1 hPa 0,0 l/m 0 min 0 min 0,0 UV-I 0 W/m 14,6 km/h (3 Bft)
07.07.2014 02:02 15,3 C 13,9 C 95 % 1013,1 hPa 0,0 l/m 0 min 0 min 0,0 UV-I 0 W/m 16,7 km/h (3 Bft)
07.07.2014 02:04 15,3 C 13,9 C 95 % 1013,2 hPa 0,0 l/m 0 min 0 min 0,0 UV-I 0 W/m 14,6 km/h (3 Bft)
07.07.2014 02:06 15,3 C 13,9 C 95 % 1013,2 hPa 0,0 l/m 0 min 0 min 0,0 UV-I 0 W/m 14,6 km/h (3 Bft)
07.07.2014 02:08 15,2 C 13,9 C 95 % 1013,1 hPa 0,0 l/m 0 min 0 min 0,0 UV-I 0 W/m 18,8 km/h (3 Bft)
07.07.2014 02:10 15,2 C 13,9 C 95 % 1013,2 hPa 0,0 l/m 0 min 0 min 0,0 UV-I 0 W/m 16,7 km/h (3 Bft)
07.07.2014 02:12 15,2 C 13,9 C 95 % 1013,2 hPa 0,0 l/m 0 min 0 min 0,0 UV-I 0 W/m 18,8 km/h (3 Bft)
07.07.2014 02:14 15,1 C 13,9 C 95 % 1013,2 hPa 0,0 l/m 0 min 0 min 0,0 UV-I 0 W/m 16,7 km/h (3 Bft)
07.07.2014 02:16 15,1 C 13,9 C 95 % 1013,2 hPa 0,0 l/m 0 min 0 min 0,0 UV-I 0 W/m 12,6 km/h (3 Bft)
07.07.2014 02:18 15,0 C 13,9 C 95 % 1013,2 hPa 0,0 l/m 0 min 0 min 0,0 UV-I 0 W/m 14,6 km/h (3 Bft)
07.07.2014 02:20 14,9 C 13,9 C 95 % 1013,2 hPa 0,0 l/m 0 min 0 min 0,0 UV-I 0 W/m 16,7 km/h (3 Bft)
07.07.2014 02:22 14,9 C 13,9 C 95 % 1013,2 hPa 0,0 l/m 0 min 0 min 0,0 UV-I 0 W/m 14,6 km/h (3 Bft)
07.07.2014 02:24 14,9 C 13,3 C 95 % 1013,2 hPa 0,0 l/m 0 min 0 min 0,0 UV-I 0 W/m 12,6 km/h (3 Bft)
07.07.2014 02:26 14,8 C 13,3 C 95 % 1013,2 hPa 0,0 l/m 0 min 0 min 0,0 UV-I 0 W/m 10,5 km/h (2 Bft)
07.07.2014 02:28 14,8 C 13,3 C 95 % 1013,2 hPa 0,0 l/m 0 min 0 min 0,0 UV-I 0 W/m 16,7 km/h (3 Bft)
07.07.2014 02:30 14,8 C 13,3 C 95 % 1013,3 hPa 0,0 l/m 0 min 0 min 0,0 UV-I 0 W/m 12,6 km/h (3 Bft)
07.07.2014 02:32 14,7 C 13,3 C 95 % 1013,3 hPa 0,0 l/m 0 min 0 min 0,0 UV-I 0 W/m 14,6 km/h (3 Bft)
07.07.2014 02:34 14,7 C 13,3 C 95 % 1013,3 hPa 0,0 l/m 0 min 0 min 0,0 UV-I 0 W/m 14,6 km/h (3 Bft)
07.07.2014 02:36 14,7 C 13,3 C 95 % 1013,3 hPa 0,0 l/m 0 min 0 min 0,0 UV-I 0 W/m 12,6 km/h (3 Bft)
07.07.2014 02:38 14,6 C 13,3 C 95 % 1013,4 hPa 0,0 l/m 0 min 0 min 0,0 UV-I 0 W/m 12,6 km/h (3 Bft)
07.07.2014 02:40 14,6 C 13,3 C 95 % 1013,4 hPa 0,0 l/m 0 min 0 min 0,0 UV-I 0 W/m 10,5 km/h (2 Bft)
07.07.2014 02:42 14,6 C 13,3 C 95 % 1013,4 hPa 0,0 l/m 0 min 0 min 0,0 UV-I 0 W/m 12,6 km/h (3 Bft)
07.07.2014 02:44 14,6 C 13,3 C 95 % 1013,5 hPa 0,0 l/m 0 min 0 min 0,0 UV-I 0 W/m 8,4 km/h (2 Bft)
07.07.2014 02:46 14,5 C 13,3 C 95 % 1013,4 hPa 0,0 l/m 0 min 0 min 0,0 UV-I 0 W/m 6,3 km/h (2 Bft)
07.07.2014 02:48 14,4 C 13,3 C 95 % 1013,5 hPa 0,0 l/m 0 min 0 min 0,0 UV-I 0 W/m 6,3 km/h (2 Bft)
07.07.2014 02:50 14,4 C 13,3 C 95 % 1013,4 hPa 0,0 l/m 0 min 0 min 0,0 UV-I 0 W/m 10,5 km/h (2 Bft)
07.07.2014 02:52 14,4 C 13,3 C 95 % 1013,4 hPa 0,0 l/m 0 min 0 min 0,0 UV-I 0 W/m 8,4 km/h (2 Bft)
07.07.2014 02:54 14,4 C 13,3 C 95 % 1013,4 hPa 0,0 l/m 0 min 0 min 0,0 UV-I 0 W/m 12,6 km/h (3 Bft)
07.07.2014 02:56 14,3 C 13,3 C 95 % 1013,4 hPa 0,0 l/m 0 min 0 min 0,0 UV-I 0 W/m 16,7 km/h (3 Bft)
07.07.2014 02:58 14,3 C 13,3 C 95 % 1013,5 hPa 0,0 l/m 0 min 0 min 0,0 UV-I 0 W/m 8,4 km/h (2 Bft)
07.07.2014 03:00 14,3 C 13,3 C 95 % 1013,5 hPa 0,0 l/m 0 min 0 min 0,0 UV-I 0 W/m 10,5 km/h (2 Bft)
07.07.2014 03:02 14,2 C 13,3 C 95 % 1013,4 hPa 0,0 l/m 0 min 0 min 0,0 UV-I 0 W/m 12,6 km/h (3 Bft)
07.07.2014 03:04 14,2 C 13,3 C 95 % 1013,5 hPa 0,0 l/m 0 min 0 min 0,0 UV-I 0 W/m 10,5 km/h (2 Bft)
07.07.2014 03:06 14,2 C 13,3 C 95 % 1013,5 hPa 0,0 l/m 0 min 0 min 0,0 UV-I 0 W/m 10,5 km/h (2 Bft)
07.07.2014 03:08 14,2 C 12,8 C 95 % 1013,5 hPa 0,0 l/m 0 min 0 min 0,0 UV-I 0 W/m 10,5 km/h (2 Bft)
07.07.2014 03:10 14,2 C 12,8 C 96 % 1013,6 hPa 0,0 l/m 0 min 0 min 0,0 UV-I 0 W/m 10,5 km/h (2 Bft)
07.07.2014 03:12 14,2 C 12,8 C 96 % 1013,6 hPa 0,0 l/m 0 min 0 min 0,0 UV-I 0 W/m 10,5 km/h (2 Bft)
07.07.2014 03:14 14,2 C 12,8 C 96 % 1013,7 hPa 0,0 l/m 0 min 0 min 0,0 UV-I 0 W/m 10,5 km/h (2 Bft)
07.07.2014 03:16 14,2 C 12,8 C 96 % 1013,7 hPa 0,0 l/m 0 min 0 min 0,0 UV-I 0 W/m 10,5 km/h (2 Bft)
07.07.2014 03:18 14,2 C 12,8 C 96 % 1013,7 hPa 0,0 l/m 0 min 0 min 0,0 UV-I 0 W/m 10,5 km/h (2 Bft)
07.07.2014 03:20 14,2 C 12,8 C 96 % 1013,8 hPa 0,0 l/m 0 min 0 min 0,0 UV-I 0 W/m 10,5 km/h (2 Bft)
07.07.2014 03:22 14,2 C 12,8 C 98 % 1013,7 hPa 0,0 l/m 0 min 0 min 0,0 UV-I 0 W/m 6,3 km/h (2 Bft)
07.07.2014 03:24 14,1 C 12,8 C 96 % 1013,8 hPa 0,0 l/m 0 min 0 min 0,0 UV-I 0 W/m 10,5 km/h (2 Bft)
07.07.2014 03:26 14,1 C 12,8 C 96 % 1013,9 hPa 0,0 l/m 0 min 0 min 0,0 UV-I 0 W/m 10,5 km/h (2 Bft)
07.07.2014 03:28 14,0 C 12,8 C 96 % 1013,8 hPa 0,0 l/m 0 min 0 min 0,0 UV-I 0 W/m 8,4 km/h (2 Bft)
07.07.2014 03:30 14,0 C 12,8 C 96 % 1013,9 hPa 0,0 l/m 0 min 0 min 0,0 UV-I 0 W/m 6,3 km/h (2 Bft)
07.07.2014 03:32 13,9 C 12,8 C 96 % 1013,9 hPa 0,0 l/m 0 min 0 min 0,0 UV-I 0 W/m 6,3 km/h (2 Bft)
07.07.2014 03:34 13,9 C 12,8 C 96 % 1014,0 hPa 0,0 l/m 0 min 0 min 0,0 UV-I 0 W/m 8,4 km/h (2 Bft)
07.07.2014 03:36 13,9 C 12,8 C 96 % 1014,0 hPa 0,0 l/m 0 min 0 min 0,0 UV-I 0 W/m 2,1 km/h (1 Bft)
07.07.2014 03:38 13,9 C 12,8 C 96 % 1014,1 hPa 0,0 l/m 0 min 0 min 0,0 UV-I 0 W/m 8,4 km/h (2 Bft)
07.07.2014 03:40 13,9 C 12,8 C 96 % 1014,1 hPa 0,0 l/m 0 min 0 min 0,0 UV-I 0 W/m 8,4 km/h (2 Bft)
07.07.2014 03:42 13,8 C 12,8 C 96 % 1014,0 hPa 0,0 l/m 0 min 0 min 0,0 UV-I 0 W/m 8,4 km/h (2 Bft)
07.07.2014 03:44 13,9 C 12,8 C 96 % 1014,2 hPa 0,0 l/m 0 min 0 min 0,0 UV-I 0 W/m 10,5 km/h (2 Bft)
07.07.2014 03:46 13,9 C 12,8 C 96 % 1014,1 hPa 0,0 l/m 0 min 0 min 0,0 UV-I 0 W/m 8,4 km/h (2 Bft)
07.07.2014 03:48 13,9 C 12,8 C 96 % 1014,2 hPa 0,0 l/m 0 min 0 min 0,0 UV-I 0 W/m 8,4 km/h (2 Bft)
07.07.2014 03:50 13,9 C 12,8 C 96 % 1014,1 hPa 0,0 l/m 0 min 0 min 0,0 UV-I 0 W/m 12,6 km/h (3 Bft)
07.07.2014 03:52 13,9 C 12,8 C 96 % 1014,2 hPa 0,0 l/m 0 min 0 min 0,0 UV-I 0 W/m 10,5 km/h (2 Bft)
07.07.2014 03:54 13,9 C 12,8 C 96 % 1014,3 hPa 0,0 l/m 0 min 0 min 0,0 UV-I 0 W/m 12,6 km/h (3 Bft)
07.07.2014 03:56 13,9 C 12,8 C 96 % 1014,3 hPa 0,0 l/m 0 min 0 min 0,0 UV-I 0 W/m 12,6 km/h (3 Bft)
07.07.2014 03:58 13,8 C 12,8 C 96 % 1014,3 hPa 0,0 l/m 0 min 0 min 0,0 UV-I 0 W/m 14,6 km/h (3 Bft)
07.07.2014 04:00 13,8 C 12,8 C 96 % 1014,4 hPa 0,0 l/m 0 min 0 min 0,0 UV-I 0 W/m 12,6 km/h (3 Bft)
07.07.2014 04:02 13,8 C 12,8 C 96 % 1014,3 hPa 0,0 l/m 0 min 0 min 0,0 UV-I 0 W/m 10,5 km/h (2 Bft)
07.07.2014 04:04 13,8 C 12,8 C 96 % 1014,4 hPa 0,0 l/m 0 min 0 min 0,0 UV-I 0 W/m 8,4 km/h (2 Bft)
07.07.2014 04:06 13,8 C 12,8 C 96 % 1014,4 hPa 0,0 l/m 0 min 0 min 0,0 UV-I 0 W/m 12,6 km/h (3 Bft)
07.07.2014 04:08 13,8 C 12,8 C 96 % 1014,3 hPa 0,0 l/m 0 min 0 min 0,0 UV-I 0 W/m 12,6 km/h (3 Bft)
07.07.2014 04:10 13,8 C 12,8 C 96 % 1014,2 hPa 0,0 l/m 0 min 0 min 0,0 UV-I 0 W/m 14,6 km/h (3 Bft)
07.07.2014 04:12 13,8 C 12,8 C 96 % 1014,2 hPa 0,0 l/m 0 min 0 min 0,0 UV-I 0 W/m 10,5 km/h (2 Bft)
07.07.2014 04:14 13,8 C 12,8 C 96 % 1014,3 hPa 0,0 l/m 0 min 0 min 0,0 UV-I 0 W/m 12,6 km/h (3 Bft)
07.07.2014 04:16 13,8 C 12,8 C 96 % 1014,2 hPa 0,0 l/m 0 min 0 min 0,0 UV-I 0 W/m 10,5 km/h (2 Bft)
07.07.2014 04:18 13,7 C 12,8 C 96 % 1014,3 hPa 0,0 l/m 0 min 0 min 0,0 UV-I 0 W/m 8,4 km/h (2 Bft)
07.07.2014 04:20 13,7 C 12,8 C 96 % 1014,3 hPa 0,0 l/m 0 min 0 min 0,0 UV-I 0 W/m 18,8 km/h (3 Bft)
07.07.2014 04:22 13,7 C 12,8 C 96 % 1014,3 hPa 0,0 l/m 0 min 0 min 0,0 UV-I 0 W/m 12,6 km/h (3 Bft)
07.07.2014 04:27 13,7 C 12,8 C 96 % 1014,4 hPa 0,0 l/m 0 min 0 min 0,0 UV-I 0 W/m 12,6 km/h (3 Bft)
07.07.2014 04:28 13,7 C 12,8 C 96 % 1014,4 hPa 0,0 l/m 0 min 0 min 0,0 UV-I 0 W/m 14,6 km/h (3 Bft)
07.07.2014 04:30 13,6 C 12,8 C 96 % 1014,3 hPa 0,0 l/m 0 min 0 min 0,0 UV-I 0 W/m 14,6 km/h (3 Bft)
07.07.2014 04:32 13,6 C 12,2 C 96 % 1014,4 hPa 0,0 l/m 0 min 0 min 0,0 UV-I 0 W/m 10,5 km/h (2 Bft)
07.07.2014 04:34 13,6 C 12,8 C 96 % 1014,4 hPa 0,0 l/m 0 min 0 min 0,0 UV-I 0 W/m 10,5 km/h (2 Bft)
07.07.2014 04:36 13,6 C 12,2 C 96 % 1014,4 hPa 0,0 l/m 0 min 0 min 0,0 UV-I 0 W/m 10,5 km/h (2 Bft)
07.07.2014 04:38 13,6 C 12,2 C 96 % 1014,4 hPa 0,0 l/m 0 min 0 min 0,0 UV-I 0 W/m 10,5 km/h (2 Bft)
07.07.2014 04:40 13,6 C 12,2 C 96 % 1014,4 hPa 0,0 l/m 0 min 0 min 0,0 UV-I 0 W/m 10,5 km/h (2 Bft)
07.07.2014 04:42 13,5 C 12,2 C 96 % 1014,5 hPa 0,0 l/m 0 min 0 min 0,0 UV-I 0 W/m 4,2 km/h (1 Bft)
07.07.2014 04:44 13,5 C 12,2 C 96 % 1014,5 hPa 0,0 l/m 0 min 0 min 0,0 UV-I 0 W/m 8,4 km/h (2 Bft)
07.07.2014 04:46 13,5 C 12,2 C 96 % 1014,5 hPa 0,0 l/m 0 min 0 min 0,0 UV-I 0 W/m 14,6 km/h (3 Bft)
07.07.2014 04:48 13,4 C 12,2 C 96 % 1014,5 hPa 0,0 l/m 0 min 0 min 0,0 UV-I 0 W/m 0,0 km/h (0 Bft)
07.07.2014 04:50 13,4 C 12,2 C 96 % 1014,5 hPa 0,0 l/m 0 min 0 min 0,0 UV-I 0 W/m 8,4 km/h (2 Bft)
07.07.2014 04:52 13,4 C 12,2 C 96 % 1014,6 hPa 0,0 l/m 0 min 0 min 0,0 UV-I 0 W/m 8,4 km/h (2 Bft)
07.07.2014 04:54 13,3 C 12,2 C 96 % 1014,5 hPa 0,0 l/m 0 min 0 min 0,0 UV-I 0 W/m 14,6 km/h (3 Bft)
07.07.2014 04:56 13,3 C 12,2 C 96 % 1014,6 hPa 0,0 l/m 0 min 0 min 0,0 UV-I 0 W/m 8,4 km/h (2 Bft)
07.07.2014 04:58 13,3 C 12,2 C 96 % 1014,6 hPa 0,0 l/m 0 min 0 min 0,0 UV-I 0 W/m 8,4 km/h (2 Bft)
07.07.2014 05:00 13,3 C 12,2 C 96 % 1014,6 hPa 0,0 l/m 0 min 0 min 0,0 UV-I 0 W/m 14,6 km/h (3 Bft)
07.07.2014 05:02 13,3 C 12,2 C 96 % 1014,6 hPa 0,0 l/m 0 min 0 min 0,0 UV-I 0 W/m 10,5 km/h (2 Bft)
07.07.2014 05:04 13,3 C 12,2 C 96 % 1014,5 hPa 0,0 l/m 0 min 0 min 0,0 UV-I 0 W/m 10,5 km/h (2 Bft)
07.07.2014 05:06 13,2 C 12,2 C 96 % 1014,6 hPa 0,0 l/m 0 min 0 min 0,0 UV-I 0 W/m 8,4 km/h (2 Bft)
07.07.2014 05:08 13,2 C 12,2 C 96 % 1014,6 hPa 0,0 l/m 0 min 0 min 0,0 UV-I 0 W/m 12,6 km/h (3 Bft)
07.07.2014 05:10 13,2 C 12,2 C 96 % 1014,6 hPa 0,0 l/m 0 min 0 min 0,0 UV-I 0 W/m 8,4 km/h (2 Bft)
07.07.2014 05:12 13,2 C 12,2 C 96 % 1014,6 hPa 0,0 l/m 0 min 0 min 0,0 UV-I 0 W/m 8,4 km/h (2 Bft)
07.07.2014 05:14 13,2 C 12,2 C 96 % 1014,6 hPa 0,0 l/m 0 min 0 min 0,0 UV-I 0 W/m 12,6 km/h (3 Bft)
07.07.2014 05:16 13,2 C 12,2 C 96 % 1014,6 hPa 0,0 l/m 0 min 0 min 0,0 UV-I 0 W/m 16,7 km/h (3 Bft)
07.07.2014 05:18 13,1 C 12,2 C 96 % 1014,7 hPa 0,0 l/m 0 min 0 min 0,0 UV-I 0 W/m 12,6 km/h (3 Bft)
07.07.2014 05:20 13,1 C 12,2 C 96 % 1014,7 hPa 0,0 l/m 0 min 0 min 0,0 UV-I 0 W/m 14,6 km/h (3 Bft)
07.07.2014 05:22 13,1 C 12,2 C 96 % 1014,8 hPa 0,0 l/m 0 min 0 min 0,0 UV-I 0 W/m 18,8 km/h (3 Bft)
07.07.2014 05:24 13,1 C 12,2 C 96 % 1014,9 hPa 0,0 l/m 0 min 0 min 0,0 UV-I 0 W/m 10,5 km/h (2 Bft)
07.07.2014 05:26 13,1 C 12,2 C 96 % 1014,8 hPa 0,0 l/m 0 min 0 min 0,0 UV-I 0 W/m 10,5 km/h (2 Bft)
07.07.2014 05:28 13,1 C 12,2 C 95 % 1014,9 hPa 0,0 l/m 0 min 0 min 0,0 UV-I 5 W/m 10,5 km/h (2 Bft)
07.07.2014 05:30 13,1 C 12,2 C 95 % 1014,9 hPa 0,0 l/m 0 min 0 min 0,0 UV-I 5 W/m 10,5 km/h (2 Bft)
07.07.2014 05:32 13,1 C 12,2 C 95 % 1015,0 hPa 0,0 l/m 0 min 0 min 0,0 UV-I 5 W/m 12,6 km/h (3 Bft)
07.07.2014 05:34 13,1 C 12,2 C 95 % 1015,0 hPa 0,0 l/m 0 min 0 min 0,0 UV-I 5 W/m 14,6 km/h (3 Bft)
07.07.2014 05:36 13,1 C 12,2 C 95 % 1015,1 hPa 0,0 l/m 0 min 0 min 0,0 UV-I 5 W/m 16,7 km/h (3 Bft)
07.07.2014 05:38 13,1 C 12,2 C 95 % 1015,1 hPa 0,0 l/m 0 min 0 min 0,0 UV-I 7 W/m 16,7 km/h (3 Bft)
07.07.2014 05:40 13,1 C 12,2 C 95 % 1015,2 hPa 0,0 l/m 0 min 0 min 0,0 UV-I 7 W/m 14,6 km/h (3 Bft)
07.07.2014 05:42 13,1 C 12,2 C 95 % 1015,2 hPa 0,0 l/m 0 min 0 min 0,0 UV-I 9 W/m 16,7 km/h (3 Bft)
07.07.2014 05:44 13,1 C 11,7 C 95 % 1015,1 hPa 0,0 l/m 0 min 0 min 0,0 UV-I 9 W/m 20,9 km/h (4 Bft)
07.07.2014 05:46 13,1 C 11,7 C 95 % 1015,2 hPa 0,0 l/m 0 min 0 min 0,0 UV-I 11 W/m 16,7 km/h (3 Bft)
07.07.2014 05:48 13,0 C 11,7 C 95 % 1015,1 hPa 0,0 l/m 0 min 0 min 0,0 UV-I 12 W/m 10,5 km/h (2 Bft)
07.07.2014 05:50 13,1 C 11,7 C 95 % 1015,1 hPa 0,0 l/m 0 min 0 min 0,0 UV-I 12 W/m 10,5 km/h (2 Bft)
07.07.2014 05:52 13,1 C 11,7 C 95 % 1015,1 hPa 0,0 l/m 0 min 0 min 0,0 UV-I 14 W/m 14,6 km/h (3 Bft)
07.07.2014 05:54 13,0 C 11,7 C 95 % 1015,2 hPa 0,0 l/m 0 min 0 min 0,0 UV-I 16 W/m 14,6 km/h (3 Bft)
07.07.2014 05:56 13,1 C 11,7 C 95 % 1015,1 hPa 0,0 l/m 0 min 0 min 0,0 UV-I 16 W/m 12,6 km/h (3 Bft)
07.07.2014 05:58 13,1 C 11,7 C 95 % 1015,2 hPa 0,0 l/m 0 min 0 min 0,0 UV-I 18 W/m 14,6 km/h (3 Bft)
07.07.2014 06:00 13,1 C 11,7 C 95 % 1015,2 hPa 0,0 l/m 0 min 0 min 0,0 UV-I 19 W/m 8,4 km/h (2 Bft)
07.07.2014 06:02 13,1 C 11,7 C 95 % 1015,3 hPa 0,0 l/m 0 min 0 min 0,0 UV-I 21 W/m 14,6 km/h (3 Bft)
07.07.2014 06:06 13,0 C 11,7 C 95 % 1015,3 hPa 0,0 l/m 0 min 0 min 0,0 UV-I 32 W/m 12,6 km/h (3 Bft)
07.07.2014 06:08 13,0 C 12,2 C 94 % 1015,3 hPa 0,0 l/m 0 min 0 min 0,0 UV-I 26 W/m 14,6 km/h (3 Bft)
07.07.2014 06:10 13,0 C 11,7 C 94 % 1015,3 hPa 0,0 l/m 0 min 0 min 0,0 UV-I 26 W/m 10,5 km/h (2 Bft)
07.07.2014 06:12 13,0 C 12,2 C 94 % 1015,4 hPa 0,0 l/m 0 min 0 min 0,0 UV-I 30 W/m 14,6 km/h (3 Bft)
07.07.2014 06:14 13,0 C 12,2 C 94 % 1015,4 hPa 0,0 l/m 0 min 0 min 0,0 UV-I 32 W/m 14,6 km/h (3 Bft)
07.07.2014 06:16 13,0 C 12,2 C 94 % 1015,4 hPa 0,0 l/m 0 min 0 min 0,0 UV-I 32 W/m 16,7 km/h (3 Bft)
07.07.2014 06:18 13,0 C 12,2 C 94 % 1015,4 hPa 0,0 l/m 0 min 0 min 0,0 UV-I 33 W/m 14,6 km/h (3 Bft)
07.07.2014 06:20 13,1 C 12,2 C 94 % 1015,4 hPa 0,0 l/m 0 min 0 min 0,0 UV-I 33 W/m 14,6 km/h (3 Bft)
07.07.2014 06:22 13,0 C 12,2 C 94 % 1015,4 hPa 0,0 l/m 0 min 0 min 0,0 UV-I 35 W/m 14,6 km/h (3 Bft)
07.07.2014 06:24 13,1 C 12,2 C 94 % 1015,4 hPa 0,0 l/m 0 min 0 min 0,0 UV-I 39 W/m 14,6 km/h (3 Bft)
07.07.2014 06:26 13,1 C 12,2 C 94 % 1015,4 hPa 0,0 l/m 0 min 0 min 0,0 UV-I 42 W/m 10,5 km/h (2 Bft)
07.07.2014 06:28 13,1 C 12,2 C 94 % 1015,4 hPa 0,0 l/m 0 min 0 min 0,0 UV-I 47 W/m 14,6 km/h (3 Bft)
07.07.2014 06:30 13,1 C 12,2 C 94 % 1015,4 hPa 0,0 l/m 0 min 0 min 0,0 UV-I 49 W/m 10,5 km/h (2 Bft)
07.07.2014 06:32 13,1 C 12,2 C 94 % 1015,5 hPa 0,0 l/m 0 min 0 min 0,0 UV-I 51 W/m 10,5 km/h (2 Bft)
07.07.2014 06:34 13,1 C 12,2 C 94 % 1015,5 hPa 0,0 l/m 0 min 0 min 0,0 UV-I 54 W/m 12,6 km/h (3 Bft)
07.07.2014 06:36 13,1 C 12,2 C 94 % 1015,6 hPa 0,0 l/m 0 min 0 min 0,0 UV-I 56 W/m 10,5 km/h (2 Bft)
07.07.2014 06:38 13,1 C 12,2 C 94 % 1015,6 hPa 0,0 l/m 0 min 0 min 0,0 UV-I 58 W/m 10,5 km/h (2 Bft)
07.07.2014 06:40 13,1 C 12,2 C 94 % 1015,6 hPa 0,0 l/m 0 min 0 min 0,0 UV-I 58 W/m 14,6 km/h (3 Bft)
07.07.2014 06:42 13,1 C 12,2 C 94 % 1015,6 hPa 0,0 l/m 0 min 0 min 0,0 UV-I 58 W/m 18,8 km/h (3 Bft)
07.07.2014 06:44 13,2 C 12,2 C 94 % 1015,6 hPa 0,0 l/m 0 min 0 min 0,0 UV-I 60 W/m 16,7 km/h (3 Bft)
07.07.2014 06:46 13,2 C 12,2 C 94 % 1015,6 hPa 0,0 l/m 0 min 0 min 0,0 UV-I 62 W/m 16,7 km/h (3 Bft)
07.07.2014 06:48 13,2 C 12,2 C 94 % 1015,6 hPa 0,0 l/m 0 min 0 min 0,0 UV-I 63 W/m 12,6 km/h (3 Bft)
07.07.2014 06:50 13,2 C 12,2 C 94 % 1015,6 hPa 0,0 l/m 0 min 0 min 0,0 UV-I 63 W/m 14,6 km/h (3 Bft)
07.07.2014 06:52 13,2 C 12,2 C 94 % 1015,7 hPa 0,0 l/m 0 min 0 min 0,0 UV-I 65 W/m 14,6 km/h (3 Bft)
07.07.2014 06:54 13,2 C 12,2 C 94 % 1015,8 hPa 0,0 l/m 0 min 0 min 0,0 UV-I 65 W/m 16,7 km/h (3 Bft)
07.07.2014 06:56 13,2 C 12,2 C 94 % 1015,8 hPa 0,0 l/m 0 min 0 min 0,0 UV-I 65 W/m 16,7 km/h (3 Bft)
07.07.2014 06:58 13,2 C 12,2 C 93 % 1015,8 hPa 0,0 l/m 2 min 0 min 0,0 UV-I 123 W/m 10,5 km/h (2 Bft)
07.07.2014 07:00 13,2 C 12,2 C 93 % 1015,8 hPa 0,0 l/m 0 min 0 min 0,0 UV-I 74 W/m 12,6 km/h (3 Bft)
07.07.2014 07:02 13,2 C 12,2 C 93 % 1015,8 hPa 0,0 l/m 0 min 0 min 0,0 UV-I 69 W/m 10,5 km/h (2 Bft)
07.07.2014 07:04 13,2 C 12,2 C 93 % 1015,8 hPa 0,0 l/m 2 min 0 min 0,0 UV-I 135 W/m 10,5 km/h (2 Bft)
07.07.2014 07:06 13,2 C 12,2 C 93 % 1015,8 hPa 0,0 l/m 2 min 0 min 0,0 UV-I 151 W/m 10,5 km/h (2 Bft)
07.07.2014 07:08 13,2 C 12,2 C 93 % 1015,8 hPa 0,0 l/m 2 min 0 min 0,0 UV-I 134 W/m 8,4 km/h (2 Bft)
07.07.2014 07:10 13,2 C 12,2 C 93 % 1015,8 hPa 0,0 l/m 2 min 0 min 0,0 UV-I 109 W/m 10,5 km/h (2 Bft)
07.07.2014 07:12 13,2 C 12,2 C 93 % 1015,8 hPa 0,0 l/m 0 min 0 min 0,0 UV-I 84 W/m 14,6 km/h (3 Bft)
07.07.2014 07:14 13,2 C 12,2 C 93 % 1015,8 hPa 0,0 l/m 0 min 0 min 0,0 UV-I 81 W/m 16,7 km/h (3 Bft)
07.07.2014 07:16 13,2 C 12,2 C 93 % 1015,9 hPa 0,0 l/m 0 min 0 min 0,0 UV-I 77 W/m 14,6 km/h (3 Bft)
07.07.2014 07:18 13,2 C 12,2 C 93 % 1015,9 hPa 0,0 l/m 0 min 0 min 0,0 UV-I 79 W/m 16,7 km/h (3 Bft)
07.07.2014 07:20 13,2 C 12,2 C 93 % 1016,0 hPa 0,0 l/m 0 min 0 min 0,0 UV-I 104 W/m 12,6 km/h (3 Bft)
07.07.2014 07:22 13,2 C 12,2 C 93 % 1015,9 hPa 0,0 l/m 2 min 0 min 0,0 UV-I 163 W/m 18,8 km/h (3 Bft)
07.07.2014 07:24 13,3 C 12,2 C 93 % 1016,0 hPa 0,0 l/m 2 min 0 min 0,0 UV-I 211 W/m 12,6 km/h (3 Bft)
07.07.2014 07:26 13,3 C 12,2 C 93 % 1016,1 hPa 0,0 l/m 2 min 0 min 0,0 UV-I 241 W/m 14,6 km/h (3 Bft)
07.07.2014 07:28 13,3 C 12,2 C 93 % 1016,2 hPa 0,0 l/m 2 min 0 min 0,0 UV-I 253 W/m 12,6 km/h (3 Bft)
07.07.2014 07:30 13,4 C 12,2 C 95 % 1016,2 hPa 0,0 l/m 2 min 0 min 0,0 UV-I 251 W/m 18,8 km/h (3 Bft)
07.07.2014 07:32 13,4 C 12,2 C 93 % 1016,3 hPa 0,0 l/m 2 min 0 min 0,0 UV-I 288 W/m 16,7 km/h (3 Bft)
07.07.2014 07:34 13,4 C 12,2 C 93 % 1016,4 hPa 0,0 l/m 2 min 0 min 0,0 UV-I 295 W/m 16,7 km/h (3 Bft)
07.07.2014 07:36 13,5 C 12,2 C 92 % 1016,4 hPa 0,0 l/m 2 min 0 min 0,0 UV-I 308 W/m 12,6 km/h (3 Bft)
07.07.2014 07:38 13,6 C 12,2 C 92 % 1016,4 hPa 0,0 l/m 2 min 0 min 0,0 UV-I 318 W/m 12,6 km/h (3 Bft)
07.07.2014 07:40 13,7 C 12,2 C 92 % 1016,5 hPa 0,0 l/m 2 min 0 min 0,0 UV-I 327 W/m 14,6 km/h (3 Bft)
07.07.2014 07:42 13,8 C 12,2 C 92 % 1016,5 hPa 0,0 l/m 2 min 0 min 0,0 UV-I 336 W/m 12,6 km/h (3 Bft)
07.07.2014 07:44 13,8 C 12,8 C 92 % 1016,5 hPa 0,0 l/m 2 min 0 min 0,0 UV-I 338 W/m 18,8 km/h (3 Bft)
07.07.2014 07:46 13,8 C 12,8 C 92 % 1016,5 hPa 0,0 l/m 2 min 0 min 0,0 UV-I 359 W/m 16,7 km/h (3 Bft)
07.07.2014 07:48 13,9 C 12,8 C 91 % 1016,5 hPa 0,0 l/m 2 min 0 min 0,0 UV-I 360 W/m 16,7 km/h (3 Bft)
07.07.2014 07:50 14,1 C 12,8 C 91 % 1016,5 hPa 0,0 l/m 2 min 0 min 0,0 UV-I 341 W/m 18,8 km/h (3 Bft)
07.07.2014 07:52 14,2 C 12,2 C 91 % 1016,5 hPa 0,0 l/m 2 min 0 min 0,0 UV-I 345 W/m 18,8 km/h (3 Bft)
07.07.2014 07:54 14,2 C 12,2 C 91 % 1016,6 hPa 0,0 l/m 2 min 0 min 0,0 UV-I 367 W/m 16,7 km/h (3 Bft)
07.07.2014 07:56 14,2 C 12,8 C 91 % 1016,6 hPa 0,0 l/m 2 min 0 min 0,0 UV-I 381 W/m 14,6 km/h (3 Bft)
07.07.2014 07:58 14,3 C 12,8 C 90 % 1016,6 hPa 0,0 l/m 2 min 0 min 0,0 UV-I 320 W/m 18,8 km/h (3 Bft)
07.07.2014 08:00 14,4 C 12,8 C 90 % 1016,6 hPa 0,0 l/m 2 min 0 min 0,0 UV-I 417 W/m 12,6 km/h (3 Bft)
07.07.2014 08:02 14,4 C 12,8 C 90 % 1016,6 hPa 0,0 l/m 2 min 0 min 0,0 UV-I 422 W/m 16,7 km/h (3 Bft)
07.07.2014 08:04 14,5 C 12,8 C 90 % 1016,7 hPa 0,0 l/m 2 min 0 min 0,0 UV-I 410 W/m 23,0 km/h (4 Bft)
07.07.2014 08:06 14,6 C 12,8 C 90 % 1016,7 hPa 0,0 l/m 2 min 0 min 0,0 UV-I 445 W/m 20,9 km/h (4 Bft)
07.07.2014 08:08 14,7 C 12,8 C 89 % 1016,7 hPa 0,0 l/m 2 min 0 min 0,0 UV-I 432 W/m 18,8 km/h (3 Bft)
07.07.2014 08:10 14,7 C 12,8 C 89 % 1016,7 hPa 0,0 l/m 2 min 0 min 0,0 UV-I 411 W/m 20,9 km/h (4 Bft)
07.07.2014 08:12 14,8 C 12,8 C 89 % 1016,7 hPa 0,0 l/m 2 min 0 min 0,0 UV-I 397 W/m 12,6 km/h (3 Bft)
07.07.2014 08:14 14,8 C 12,8 C 89 % 1016,8 hPa 0,0 l/m 2 min 0 min 0,0 UV-I 186 W/m 18,8 km/h (3 Bft)
07.07.2014 08:16 14,8 C 12,8 C 89 % 1016,8 hPa 0,0 l/m 2 min 0 min 0,0 UV-I 271 W/m 18,8 km/h (3 Bft)
07.07.2014 08:18 14,8 C 12,8 C 88 % 1016,8 hPa 0,0 l/m 2 min 0 min 0,0 UV-I 388 W/m 16,7 km/h (3 Bft)
07.07.2014 08:20 14,8 C 12,8 C 89 % 1016,8 hPa 0,0 l/m 2 min 0 min 0,5 UV-I 432 W/m 14,6 km/h (3 Bft)
07.07.2014 08:22 14,8 C 12,8 C 89 % 1016,8 hPa 0,0 l/m 2 min 0 min 0,5 UV-I 403 W/m 18,8 km/h (3 Bft)
07.07.2014 08:24 14,8 C 12,8 C 88 % 1016,9 hPa 0,0 l/m 2 min 0 min 0,5 UV-I 359 W/m 18,8 km/h (3 Bft)
07.07.2014 08:26 14,8 C 12,8 C 88 % 1016,8 hPa 0,0 l/m 2 min 0 min 0,0 UV-I 352 W/m 16,7 km/h (3 Bft)
07.07.2014 08:28 14,8 C 12,8 C 88 % 1016,9 hPa 0,0 l/m 2 min 0 min 0,5 UV-I 383 W/m 20,9 km/h (4 Bft)
07.07.2014 08:30 14,8 C 12,8 C 88 % 1016,9 hPa 0,0 l/m 2 min 0 min 0,5 UV-I 373 W/m 16,7 km/h (3 Bft)
07.07.2014 08:32 14,8 C 12,8 C 88 % 1016,9 hPa 0,0 l/m 2 min 0 min 0,0 UV-I 209 W/m 12,6 km/h (3 Bft)
07.07.2014 08:34 14,9 C 12,8 C 88 % 1016,9 hPa 0,0 l/m 2 min 0 min 0,6 UV-I 260 W/m 20,9 km/h (4 Bft)
07.07.2014 08:36 14,9 C 12,8 C 88 % 1016,8 hPa 0,0 l/m 2 min 0 min 0,5 UV-I 295 W/m 14,6 km/h (3 Bft)
07.07.2014 08:38 14,9 C 12,8 C 87 % 1016,8 hPa 0,0 l/m 2 min 0 min 0,5 UV-I 387 W/m 18,8 km/h (3 Bft)
07.07.2014 08:40 14,9 C 12,8 C 87 % 1016,8 hPa 0,0 l/m 2 min 0 min 0,7 UV-I 432 W/m 23,0 km/h (4 Bft)
07.07.2014 08:42 14,9 C 12,8 C 87 % 1016,9 hPa 0,0 l/m 2 min 0 min 0,7 UV-I 413 W/m 18,8 km/h (3 Bft)
07.07.2014 08:44 15,0 C 12,8 C 87 % 1016,9 hPa 0,0 l/m 2 min 0 min 0,7 UV-I 350 W/m 20,9 km/h (4 Bft)
07.07.2014 08:46 15,1 C 12,8 C 87 % 1016,9 hPa 0,0 l/m 2 min 0 min 0,9 UV-I 462 W/m 16,7 km/h (3 Bft)
07.07.2014 08:48 15,2 C 13,3 C 88 % 1017,0 hPa 0,0 l/m 2 min 0 min 0,9 UV-I 445 W/m 14,6 km/h (3 Bft)
07.07.2014 08:50 15,3 C 13,3 C 88 % 1016,9 hPa 0,0 l/m 2 min 0 min 0,9 UV-I 462 W/m 14,6 km/h (3 Bft)
07.07.2014 08:52 15,4 C 13,3 C 87 % 1017,0 hPa 0,0 l/m 2 min 0 min 0,9 UV-I 450 W/m 14,6 km/h (3 Bft)
07.07.2014 08:54 15,5 C 13,3 C 87 % 1017,0 hPa 0,0 l/m 2 min 0 min 0,9 UV-I 471 W/m 16,7 km/h (3 Bft)
07.07.2014 08:56 15,6 C 13,3 C 87 % 1017,0 hPa 0,0 l/m 2 min 0 min 0,9 UV-I 408 W/m 18,8 km/h (3 Bft)
07.07.2014 08:58 15,6 C 13,3 C 86 % 1017,0 hPa 0,0 l/m 2 min 0 min 0,8 UV-I 348 W/m 16,7 km/h (3 Bft)
07.07.2014 09:00 15,7 C 13,3 C 86 % 1017,0 hPa 0,0 l/m 2 min 0 min 1,1 UV-I 473 W/m 16,7 km/h (3 Bft)
07.07.2014 09:02 15,7 C 13,3 C 86 % 1017,0 hPa 0,0 l/m 2 min 0 min 1,2 UV-I 487 W/m 12,6 km/h (3 Bft)
07.07.2014 09:04 15,8 C 13,3 C 86 % 1017,0 hPa 0,0 l/m 2 min 0 min 1,1 UV-I 461 W/m 16,7 km/h (3 Bft)
07.07.2014 09:06 15,8 C 13,3 C 86 % 1017,0 hPa 0,0 l/m 2 min 0 min 1,3 UV-I 524 W/m 14,6 km/h (3 Bft)
07.07.2014 09:08 15,9 C 13,9 C 86 % 1017,0 hPa 0,0 l/m 2 min 0 min 1,3 UV-I 522 W/m 12,6 km/h (3 Bft)
07.07.2014 09:10 15,9 C 13,9 C 86 % 1017,0 hPa 0,0 l/m 2 min 0 min 1,3 UV-I 529 W/m 10,5 km/h (2 Bft)
07.07.2014 09:12 16,0 C 13,9 C 85 % 1017,1 hPa 0,0 l/m 2 min 0 min 1,4 UV-I 526 W/m 10,5 km/h (2 Bft)
07.07.2014 09:14 16,1 C 13,9 C 85 % 1017,0 hPa 0,0 l/m 2 min 0 min 1,4 UV-I 508 W/m 16,7 km/h (3 Bft)
07.07.2014 09:16 16,1 C 13,9 C 85 % 1017,0 hPa 0,0 l/m 2 min 0 min 1,3 UV-I 434 W/m 20,9 km/h (4 Bft)
07.07.2014 09:18 16,1 C 13,9 C 85 % 1017,0 hPa 0,0 l/m 2 min 0 min 1,5 UV-I 552 W/m 16,7 km/h (3 Bft)
07.07.2014 09:20 16,3 C 13,9 C 86 % 1017,0 hPa 0,0 l/m 2 min 0 min 1,6 UV-I 552 W/m 16,7 km/h (3 Bft)
07.07.2014 09:22 16,3 C 13,9 C 84 % 1017,0 hPa 0,0 l/m 2 min 0 min 1,5 UV-I 510 W/m 12,6 km/h (3 Bft)
07.07.2014 09:24 16,5 C 14,4 C 85 % 1017,1 hPa 0,0 l/m 2 min 0 min 1,6 UV-I 573 W/m 12,6 km/h (3 Bft)
07.07.2014 09:26 16,6 C 14,4 C 85 % 1017,0 hPa 0,0 l/m 2 min 0 min 1,7 UV-I 559 W/m 14,6 km/h (3 Bft)
07.07.2014 09:28 16,8 C 14,4 C 84 % 1017,1 hPa 0,0 l/m 2 min 0 min 1,8 UV-I 575 W/m 14,6 km/h (3 Bft)
07.07.2014 09:30 16,9 C 14,4 C 83 % 1017,0 hPa 0,0 l/m 2 min 0 min 1,8 UV-I 589 W/m 12,6 km/h (3 Bft)
07.07.2014 09:32 17,0 C 15,0 C 84 % 1017,1 hPa 0,0 l/m 2 min 0 min 1,9 UV-I 584 W/m 12,6 km/h (3 Bft)
07.07.2014 09:34 17,2 C 15,0 C 83 % 1017,0 hPa 0,0 l/m 2 min 0 min 1,9 UV-I 585 W/m 10,5 km/h (2 Bft)
07.07.2014 09:36 17,3 C 15,0 C 83 % 1017,0 hPa 0,0 l/m 2 min 0 min 1,9 UV-I 584 W/m 14,6 km/h (3 Bft)
07.07.2014 09:38 17,4 C 15,0 C 82 % 1017,1 hPa 0,0 l/m 2 min 0 min 1,8 UV-I 591 W/m 16,7 km/h (3 Bft)
07.07.2014 09:40 17,4 C 15,0 C 82 % 1017,1 hPa 0,0 l/m 2 min 0 min 1,6 UV-I 475 W/m 14,6 km/h (3 Bft)
07.07.2014 09:42 17,4 C 15,6 C 82 % 1017,0 hPa 0,0 l/m 2 min 0 min 2,0 UV-I 570 W/m 14,6 km/h (3 Bft)
07.07.2014 09:44 17,4 C 15,6 C 82 % 1017,1 hPa 0,0 l/m 2 min 0 min 2,1 UV-I 591 W/m 14,6 km/h (3 Bft)
07.07.2014 09:46 17,6 C 15,6 C 83 % 1017,1 hPa 0,0 l/m 2 min 0 min 2,1 UV-I 608 W/m 10,5 km/h (2 Bft)
07.07.2014 09:48 17,6 C 15,6 C 82 % 1017,2 hPa 0,0 l/m 2 min 0 min 2,2 UV-I 628 W/m 10,5 km/h (2 Bft)
07.07.2014 09:50 17,7 C 15,6 C 82 % 1017,1 hPa 0,0 l/m 2 min 0 min 2,2 UV-I 624 W/m 10,5 km/h (2 Bft)
07.07.2014 09:52 17,8 C 16,1 C 81 % 1017,1 hPa 0,0 l/m 2 min 0 min 2,2 UV-I 610 W/m 4,2 km/h (1 Bft)
07.07.2014 09:54 17,8 C 16,1 C 80 % 1017,1 hPa 0,0 l/m 2 min 0 min 2,2 UV-I 601 W/m 10,5 km/h (2 Bft)
07.07.2014 09:56 17,8 C 16,1 C 81 % 1017,1 hPa 0,0 l/m 2 min 0 min 2,3 UV-I 613 W/m 10,5 km/h (2 Bft)
07.07.2014 09:58 17,9 C 16,7 C 82 % 1017,1 hPa 0,0 l/m 2 min 0 min 2,1 UV-I 626 W/m 10,5 km/h (2 Bft)
07.07.2014 10:00 18,1 C 16,7 C 82 % 1017,1 hPa 0,0 l/m 2 min 0 min 2,2 UV-I 598 W/m 16,7 km/h (3 Bft)
07.07.2014 10:02 18,2 C 17,2 C 81 % 1017,2 hPa 0,0 l/m 2 min 0 min 2,1 UV-I 536 W/m 10,5 km/h (2 Bft)
07.07.2014 10:04 18,3 C 17,8 C 80 % 1017,2 hPa 0,0 l/m 2 min 0 min 2,2 UV-I 501 W/m 12,6 km/h (3 Bft)
07.07.2014 10:06 18,2 C 18,3 C 79 % 1017,3 hPa 0,0 l/m 2 min 0 min 2,2 UV-I 547 W/m 8,4 km/h (2 Bft)
07.07.2014 10:08 18,3 C 19,4 C 79 % 1017,3 hPa 0,0 l/m 2 min 0 min 2,3 UV-I 575 W/m 8,4 km/h (2 Bft)
07.07.2014 10:10 18,3 C 20,0 C 79 % 1017,2 hPa 0,0 l/m 2 min 0 min 2,3 UV-I 578 W/m 2,1 km/h (1 Bft)
07.07.2014 10:12 18,4 C 20,6 C 79 % 1017,2 hPa 0,0 l/m 2 min 0 min 2,6 UV-I 631 W/m 8,4 km/h (2 Bft)
07.07.2014 10:14 18,5 C 20,6 C 78 % 1017,3 hPa 0,0 l/m 2 min 0 min 2,7 UV-I 673 W/m 14,6 km/h (3 Bft)
07.07.2014 10:16 18,7 C 20,6 C 78 % 1017,3 hPa 0,0 l/m 2 min 0 min 2,6 UV-I 668 W/m 12,6 km/h (3 Bft)
07.07.2014 10:18 18,6 C 19,4 C 76 % 1017,3 hPa 0,0 l/m 2 min 0 min 2,3 UV-I 643 W/m 10,5 km/h (2 Bft)
07.07.2014 10:20 18,6 C 19,4 C 77 % 1017,3 hPa 0,0 l/m 2 min 0 min 2,5 UV-I 564 W/m 16,7 km/h (3 Bft)
07.07.2014 10:22 18,5 C 19,4 C 76 % 1017,2 hPa 0,0 l/m 2 min 0 min 2,9 UV-I 677 W/m 12,6 km/h (3 Bft)
07.07.2014 10:24 18,5 C 21,1 C 78 % 1017,3 hPa 0,0 l/m 2 min 0 min 3,1 UV-I 726 W/m 6,3 km/h (2 Bft)
07.07.2014 10:26 18,7 C 22,2 C 78 % 1017,2 hPa 0,0 l/m 2 min 0 min 3,1 UV-I 700 W/m 12,6 km/h (3 Bft)
07.07.2014 10:28 18,8 C 22,8 C 77 % 1017,2 hPa 0,0 l/m 2 min 0 min 3,0 UV-I 675 W/m 14,6 km/h (3 Bft)
07.07.2014 10:30 19,0 C 21,7 C 78 % 1017,2 hPa 0,0 l/m 2 min 0 min 2,8 UV-I 740 W/m 10,5 km/h (2 Bft)
07.07.2014 10:32 19,0 C 21,1 C 76 % 1017,3 hPa 0,0 l/m 2 min 0 min 2,9 UV-I 664 W/m 18,8 km/h (3 Bft)
07.07.2014 10:34 18,8 C 20,6 C 77 % 1017,3 hPa 0,0 l/m 2 min 0 min 3,1 UV-I 731 W/m 23,0 km/h (4 Bft)
07.07.2014 10:36 18,9 C 20,0 C 76 % 1017,4 hPa 0,0 l/m 2 min 0 min 2,2 UV-I 731 W/m 16,7 km/h (3 Bft)
07.07.2014 10:38 18,8 C 20,0 C 76 % 1017,4 hPa 0,0 l/m 2 min 0 min 2,5 UV-I 555 W/m 10,5 km/h (2 Bft)
07.07.2014 10:40 18,7 C 20,0 C 77 % 1017,4 hPa 0,0 l/m 2 min 0 min 2,1 UV-I 455 W/m 14,6 km/h (3 Bft)
07.07.2014 10:42 18,7 C 20,0 C 77 % 1017,4 hPa 0,0 l/m 2 min 0 min 2,8 UV-I 443 W/m 14,6 km/h (3 Bft)
07.07.2014 10:44 18,7 C 20,0 C 74 % 1017,4 hPa 0,0 l/m 2 min 0 min 2,6 UV-I 522 W/m 16,7 km/h (3 Bft)
07.07.2014 10:46 18,7 C 20,0 C 74 % 1017,4 hPa 0,0 l/m 2 min 0 min 2,6 UV-I 568 W/m 14,6 km/h (3 Bft)
07.07.2014 10:48 18,7 C 20,0 C 74 % 1017,4 hPa 0,0 l/m 2 min 0 min 2,7 UV-I 592 W/m 10,5 km/h (2 Bft)
07.07.2014 10:50 18,9 C 20,0 C 78 % 1017,4 hPa 0,0 l/m 2 min 0 min 2,2 UV-I 466 W/m 10,5 km/h (2 Bft)
07.07.2014 10:52 18,9 C 19,4 C 75 % 1017,5 hPa 0,0 l/m 2 min 0 min 2,1 UV-I 418 W/m 16,7 km/h (3 Bft)
07.07.2014 10:54 18,8 C 19,4 C 75 % 1017,4 hPa 0,0 l/m 2 min 0 min 2,2 UV-I 457 W/m 18,8 km/h (3 Bft)
07.07.2014 10:56 18,7 C 19,4 C 75 % 1017,5 hPa 0,0 l/m 2 min 0 min 2,3 UV-I 415 W/m 12,6 km/h (3 Bft)
07.07.2014 10:58 18,7 C 19,4 C 76 % 1017,5 hPa 0,0 l/m 2 min 0 min 2,2 UV-I 424 W/m 12,6 km/h (3 Bft)
07.07.2014 11:00 18,6 C 19,4 C 77 % 1017,5 hPa 0,0 l/m 2 min 0 min 2,5 UV-I 413 W/m 12,6 km/h (3 Bft)
07.07.2014 11:02 18,7 C 20,6 C 78 % 1017,5 hPa 0,0 l/m 2 min 0 min 2,8 UV-I 591 W/m 12,6 km/h (3 Bft)
07.07.2014 11:04 18,8 C 20,6 C 76 % 1017,5 hPa 0,0 l/m 2 min 0 min 2,6 UV-I 533 W/m 12,6 km/h (3 Bft)
07.07.2014 11:06 18,9 C 20,6 C 76 % 1017,5 hPa 0,0 l/m 2 min 0 min 2,9 UV-I 531 W/m 14,6 km/h (3 Bft)
07.07.2014 11:08 18,9 C 21,1 C 76 % 1017,5 hPa 0,0 l/m 2 min 0 min 2,7 UV-I 487 W/m 14,6 km/h (3 Bft)
07.07.2014 11:10 19,0 C 20,6 C 75 % 1017,5 hPa 0,0 l/m 2 min 0 min 3,1 UV-I 410 W/m 10,5 km/h (2 Bft)
07.07.2014 11:12 19,0 C 21,1 C 74 % 1017,5 hPa 0,0 l/m 2 min 0 min 3,4 UV-I 687 W/m 8,4 km/h (2 Bft)
07.07.2014 11:14 19,1 C 21,7 C 74 % 1017,6 hPa 0,0 l/m 2 min 0 min 3,8 UV-I 731 W/m 14,6 km/h (3 Bft)
07.07.2014 11:16 19,0 C 22,2 C 75 % 1017,6 hPa 0,0 l/m 2 min 0 min 3,3 UV-I 663 W/m 12,6 km/h (3 Bft)
07.07.2014 11:18 18,9 C 21,7 C 75 % 1017,6 hPa 0,0 l/m 2 min 0 min 3,0 UV-I 578 W/m 8,4 km/h (2 Bft)
07.07.2014 11:20 19,0 C 21,7 C 76 % 1017,6 hPa 0,0 l/m 2 min 0 min 2,9 UV-I 513 W/m 10,5 km/h (2 Bft)
07.07.2014 11:22 19,1 C 21,7 C 75 % 1017,6 hPa 0,0 l/m 2 min 0 min 3,2 UV-I 598 W/m 6,3 km/h (2 Bft)
07.07.2014 11:24 19,3 C 21,7 C 75 % 1017,6 hPa 0,0 l/m 2 min 0 min 3,2 UV-I 561 W/m 10,5 km/h (2 Bft)
07.07.2014 11:26 19,4 C 21,7 C 74 % 1017,6 hPa 0,0 l/m 2 min 0 min 3,5 UV-I 640 W/m 12,6 km/h (3 Bft)
07.07.2014 11:28 19,3 C 21,1 C 73 % 1017,6 hPa 0,0 l/m 2 min 0 min 3,2 UV-I 503 W/m 14,6 km/h (3 Bft)
07.07.2014 11:30 19,2 C 21,7 C 74 % 1017,6 hPa 0,0 l/m 2 min 0 min 4,4 UV-I 503 W/m 12,6 km/h (3 Bft)
07.07.2014 11:32 19,5 C 22,8 C 76 % 1017,7 hPa 0,0 l/m 2 min 0 min 4,3 UV-I 737 W/m 12,6 km/h (3 Bft)
07.07.2014 11:34 19,8 C 22,8 C 76 % 1017,7 hPa 0,0 l/m 2 min 0 min 4,0 UV-I 722 W/m 10,5 km/h (2 Bft)
07.07.2014 11:36 20,1 C 22,2 C 72 % 1017,7 hPa 0,0 l/m 2 min 0 min 4,0 UV-I 749 W/m 12,6 km/h (3 Bft)
07.07.2014 11:38 20,3 C 21,7 C 72 % 1017,7 hPa 0,0 l/m 2 min 0 min 4,2 UV-I 758 W/m 16,7 km/h (3 Bft)
07.07.2014 11:40 20,3 C 21,1 C 70 % 1017,7 hPa 0,0 l/m 2 min 0 min 3,8 UV-I 628 W/m 10,5 km/h (2 Bft)
07.07.2014 11:42 20,3 C 21,7 C 72 % 1017,7 hPa 0,0 l/m 2 min 0 min 4,2 UV-I 735 W/m 0,0 km/h (0 Bft)
07.07.2014 11:44 20,3 C 21,7 C 70 % 1017,7 hPa 0,0 l/m 2 min 0 min 4,1 UV-I 738 W/m 10,5 km/h (2 Bft)
07.07.2014 11:46 20,3 C 22,2 C 69 % 1017,7 hPa 0,0 l/m 2 min 0 min 4,0 UV-I 580 W/m 12,6 km/h (3 Bft)
07.07.2014 11:48 20,2 C 23,3 C 69 % 1017,7 hPa 0,0 l/m 2 min 0 min 4,2 UV-I 861 W/m 10,5 km/h (2 Bft)
07.07.2014 11:50 20,1 C 23,9 C 68 % 1017,7 hPa 0,0 l/m 2 min 0 min 4,6 UV-I 803 W/m 8,4 km/h (2 Bft)
07.07.2014 11:52 20,3 C 23,3 C 72 % 1017,7 hPa 0,0 l/m 2 min 0 min 3,3 UV-I 446 W/m 8,4 km/h (2 Bft)
07.07.2014 11:54 20,3 C 22,8 C 70 % 1017,7 hPa 0,0 l/m 2 min 0 min 3,9 UV-I 643 W/m 10,5 km/h (2 Bft)
07.07.2014 11:56 20,4 C 23,3 C 72 % 1017,7 hPa 0,0 l/m 2 min 0 min 4,2 UV-I 742 W/m 12,6 km/h (3 Bft)
07.07.2014 11:58 20,4 C 23,3 C 70 % 1017,7 hPa 0,0 l/m 2 min 0 min 4,6 UV-I 833 W/m 10,5 km/h (2 Bft)
07.07.2014 12:00 20,6 C 23,3 C 70 % 1017,7 hPa 0,0 l/m 2 min 0 min 4,0 UV-I 698 W/m 8,4 km/h (2 Bft)
07.07.2014 12:02 20,6 C 23,3 C 67 % 1017,7 hPa 0,0 l/m 2 min 0 min 3,6 UV-I 626 W/m 14,6 km/h (3 Bft)
07.07.2014 12:06 20,3 C 23,3 C 66 % 1017,7 hPa 0,0 l/m 2 min 0 min 3,8 UV-I 643 W/m 18,8 km/h (3 Bft)
07.07.2014 12:08 20,3 C 22,8 C 67 % 1017,8 hPa 0,0 l/m 2 min 0 min 3,4 UV-I 561 W/m 14,6 km/h (3 Bft)
07.07.2014 12:10 20,3 C 22,8 C 66 % 1017,7 hPa 0,0 l/m 2 min 0 min 4,2 UV-I 722 W/m 8,4 km/h (2 Bft)
07.07.2014 12:12 20,3 C 22,8 C 64 % 1017,7 hPa 0,0 l/m 2 min 0 min 3,8 UV-I 722 W/m 0,0 km/h (0 Bft)
07.07.2014 12:14 20,4 C 22,8 C 66 % 1017,8 hPa 0,0 l/m 2 min 0 min 4,1 UV-I 585 W/m 12,6 km/h (3 Bft)
07.07.2014 12:16 20,4 C 22,8 C 65 % 1017,7 hPa 0,0 l/m 2 min 0 min 4,7 UV-I 680 W/m 12,6 km/h (3 Bft)
07.07.2014 12:18 20,6 C 23,3 C 65 % 1017,7 hPa 0,0 l/m 2 min 0 min 4,2 UV-I 751 W/m 8,4 km/h (2 Bft)
07.07.2014 12:20 20,7 C 23,9 C 66 % 1017,7 hPa 0,0 l/m 2 min 0 min 5,0 UV-I 751 W/m 8,4 km/h (2 Bft)
07.07.2014 12:22 20,8 C 23,9 C 66 % 1017,7 hPa 0,0 l/m 2 min 0 min 4,1 UV-I 619 W/m 6,3 km/h (2 Bft)
07.07.2014 12:24 20,7 C 24,4 C 65 % 1017,7 hPa 0,0 l/m 2 min 0 min 4,0 UV-I 668 W/m 0,0 km/h (0 Bft)
07.07.2014 12:26 20,7 C 23,3 C 65 % 1017,7 hPa 0,0 l/m 0 min 0 min 4,1 UV-I 353 W/m 8,4 km/h (2 Bft)
07.07.2014 12:28 20,7 C 23,9 C 67 % 1017,8 hPa 0,0 l/m 0 min 0 min 4,5 UV-I 353 W/m 14,6 km/h (3 Bft)
07.07.2014 12:30 20,9 C 23,9 C 69 % 1017,8 hPa 0,0 l/m 0 min 0 min 3,0 UV-I 353 W/m 10,5 km/h (2 Bft)
07.07.2014 12:32 20,9 C 23,3 C 66 % 1017,8 hPa 0,0 l/m 2 min 0 min 4,0 UV-I 615 W/m 8,4 km/h (2 Bft)
07.07.2014 12:34 20,8 C 23,9 C 67 % 1017,8 hPa 0,0 l/m 2 min 0 min 5,5 UV-I 615 W/m 8,4 km/h (2 Bft)
07.07.2014 12:36 21,0 C 24,4 C 65 % 1017,8 hPa 0,0 l/m 2 min 0 min 5,3 UV-I 935 W/m 8,4 km/h (2 Bft)
07.07.2014 12:38 21,1 C 24,4 C 63 % 1017,8 hPa 0,0 l/m 2 min 0 min 4,4 UV-I 884 W/m 8,4 km/h (2 Bft)
07.07.2014 12:40 20,9 C 24,4 C 63 % 1017,8 hPa 0,0 l/m 2 min 0 min 3,8 UV-I 896 W/m 10,5 km/h (2 Bft)
07.07.2014 12:42 20,7 C 24,4 C 61 % 1017,8 hPa 0,0 l/m 2 min 0 min 3,3 UV-I 907 W/m 12,6 km/h (3 Bft)
07.07.2014 12:44 20,7 C 24,4 C 63 % 1017,8 hPa 0,0 l/m 2 min 0 min 4,0 UV-I 907 W/m 8,4 km/h (2 Bft)
07.07.2014 12:46 21,0 C 25,0 C 63 % 1017,8 hPa 0,0 l/m 2 min 0 min 4,4 UV-I 745 W/m 10,5 km/h (2 Bft)
07.07.2014 12:48 21,2 C 25,6 C 63 % 1017,8 hPa 0,0 l/m 2 min 0 min 4,9 UV-I 933 W/m 12,6 km/h (3 Bft)
07.07.2014 12:50 21,4 C 25,6 C 63 % 1017,8 hPa 0,0 l/m 2 min 0 min 5,9 UV-I 986 W/m 14,6 km/h (3 Bft)
07.07.2014 12:52 21,7 C 25,6 C 62 % 1017,8 hPa 0,0 l/m 2 min 0 min 5,1 UV-I 960 W/m 8,4 km/h (2 Bft)
07.07.2014 12:54 21,7 C 25,0 C 59 % 1017,8 hPa 0,0 l/m 2 min 0 min 5,8 UV-I 905 W/m 12,6 km/h (3 Bft)
07.07.2014 12:56 21,7 C 24,4 C 58 % 1017,8 hPa 0,0 l/m 2 min 0 min 4,3 UV-I 911 W/m 8,4 km/h (2 Bft)
07.07.2014 12:58 21,5 C 23,9 C 58 % 1017,8 hPa 0,0 l/m 2 min 0 min 2,8 UV-I 867 W/m 12,6 km/h (3 Bft)
07.07.2014 13:00 21,7 C 23,9 C 63 % 1017,8 hPa 0,0 l/m 2 min 0 min 3,6 UV-I 849 W/m 8,4 km/h (2 Bft)
07.07.2014 13:02 21,9 C 23,9 C 60 % 1017,8 hPa 0,0 l/m 2 min 0 min 5,3 UV-I 828 W/m 6,3 km/h (2 Bft)
07.07.2014 13:04 21,8 C 23,9 C 56 % 1017,7 hPa 0,0 l/m 2 min 0 min 5,0 UV-I 768 W/m 10,5 km/h (2 Bft)
07.07.2014 13:06 21,6 C 23,9 C 58 % 1017,7 hPa 0,0 l/m 2 min 0 min 5,1 UV-I 810 W/m 6,3 km/h (2 Bft)
07.07.2014 13:08 21,6 C 23,9 C 61 % 1017,7 hPa 0,0 l/m 2 min 0 min 5,2 UV-I 803 W/m 10,5 km/h (2 Bft)
07.07.2014 13:10 21,4 C 23,3 C 59 % 1017,6 hPa 0,0 l/m 2 min 0 min 5,2 UV-I 810 W/m 6,3 km/h (2 Bft)
07.07.2014 13:12 21,4 C 23,3 C 59 % 1017,6 hPa 0,0 l/m 2 min 0 min 5,3 UV-I 816 W/m 4,2 km/h (1 Bft)
07.07.2014 13:14 21,6 C 23,9 C 57 % 1017,6 hPa 0,0 l/m 2 min 0 min 5,1 UV-I 807 W/m 10,5 km/h (2 Bft)
07.07.2014 13:16 21,8 C 24,4 C 57 % 1017,6 hPa 0,0 l/m 2 min 0 min 5,1 UV-I 777 W/m 10,5 km/h (2 Bft)
07.07.2014 13:18 21,8 C 25,0 C 57 % 1017,6 hPa 0,0 l/m 2 min 0 min 5,0 UV-I 722 W/m 6,3 km/h (2 Bft)
07.07.2014 13:20 21,8 C 25,0 C 58 % 1017,5 hPa 0,0 l/m 2 min 0 min 5,2 UV-I 802 W/m 6,3 km/h (2 Bft)
07.07.2014 13:22 22,1 C 25,0 C 60 % 1017,5 hPa 0,0 l/m 2 min 0 min 5,3 UV-I 846 W/m 6,3 km/h (2 Bft)
07.07.2014 13:24 22,3 C 24,4 C 62 % 1017,6 hPa 0,0 l/m 2 min 0 min 5,4 UV-I 881 W/m 6,3 km/h (2 Bft)
07.07.2014 13:26 22,6 C 23,9 C 62 % 1017,5 hPa 0,0 l/m 2 min 0 min 5,0 UV-I 796 W/m 8,4 km/h (2 Bft)
07.07.2014 13:28 22,4 C 23,9 C 59 % 1017,5 hPa 0,0 l/m 2 min 0 min 5,0 UV-I 802 W/m 2,1 km/h (1 Bft)
07.07.2014 13:30 22,3 C 23,9 C 58 % 1017,5 hPa 0,0 l/m 2 min 0 min 5,0 UV-I 793 W/m 0,0 km/h (0 Bft)
07.07.2014 13:32 22,2 C 23,3 C 60 % 1017,5 hPa 0,0 l/m 2 min 0 min 4,3 UV-I 643 W/m 2,1 km/h (1 Bft)
07.07.2014 13:34 22,2 C 23,3 C 61 % 1017,5 hPa 0,0 l/m 2 min 0 min 4,4 UV-I 707 W/m 2,1 km/h (1 Bft)
07.07.2014 13:36 22,0 C 22,8 C 57 % 1017,4 hPa 0,0 l/m 2 min 0 min 4,4 UV-I 679 W/m 8,4 km/h (2 Bft)
07.07.2014 13:38 21,6 C 22,2 C 58 % 1017,3 hPa 0,0 l/m 2 min 0 min 4,2 UV-I 610 W/m 6,3 km/h (2 Bft)
07.07.2014 13:40 21,5 C 22,2 C 63 % 1017,4 hPa 0,0 l/m 2 min 0 min 3,9 UV-I 617 W/m 6,3 km/h (2 Bft)
07.07.2014 13:42 21,8 C 22,2 C 63 % 1017,3 hPa 0,0 l/m 2 min 0 min 4,1 UV-I 617 W/m 8,4 km/h (2 Bft)
07.07.2014 13:44 21,8 C 22,8 C 59 % 1017,3 hPa 0,0 l/m 2 min 0 min 3,9 UV-I 612 W/m 8,4 km/h (2 Bft)
07.07.2014 13:46 21,9 C 22,8 C 61 % 1017,3 hPa 0,0 l/m 2 min 0 min 3,6 UV-I 545 W/m 10,5 km/h (2 Bft)
07.07.2014 13:48 21,9 C 22,2 C 59 % 1017,3 hPa 0,0 l/m 2 min 0 min 4,0 UV-I 621 W/m 8,4 km/h (2 Bft)
07.07.2014 13:50 21,7 C 22,2 C 57 % 1017,3 hPa 0,0 l/m 2 min 0 min 3,8 UV-I 603 W/m 6,3 km/h (2 Bft)
07.07.2014 13:52 21,1 C 22,2 C 60 % 1017,4 hPa 0,0 l/m 2 min 0 min 3,9 UV-I 613 W/m 8,4 km/h (2 Bft)
07.07.2014 13:54 21,0 C 22,2 C 60 % 1017,4 hPa 0,0 l/m 2 min 0 min 3,8 UV-I 575 W/m 6,3 km/h (2 Bft)
07.07.2014 13:56 21,1 C 22,2 C 60 % 1017,3 hPa 0,0 l/m 2 min 0 min 4,1 UV-I 629 W/m 8,4 km/h (2 Bft)
07.07.2014 13:58 21,3 C 22,2 C 59 % 1017,3 hPa 0,0 l/m 2 min 0 min 4,4 UV-I 689 W/m 6,3 km/h (2 Bft)
07.07.2014 14:00 21,7 C 22,2 C 61 % 1017,3 hPa 0,0 l/m 2 min 0 min 4,1 UV-I 643 W/m 10,5 km/h (2 Bft)
07.07.2014 14:02 22,1 C 22,8 C 59 % 1017,3 hPa 0,0 l/m 2 min 0 min 4,2 UV-I 631 W/m 10,5 km/h (2 Bft)
07.07.2014 14:04 22,0 C 22,8 C 58 % 1017,3 hPa 0,0 l/m 2 min 0 min 4,0 UV-I 631 W/m 8,4 km/h (2 Bft)
07.07.2014 14:06 21,9 C 22,8 C 57 % 1017,3 hPa 0,0 l/m 2 min 0 min 4,1 UV-I 664 W/m 0,0 km/h (0 Bft)
07.07.2014 14:08 21,7 C 22,8 C 59 % 1017,4 hPa 0,0 l/m 2 min 0 min 4,1 UV-I 687 W/m 0,0 km/h (0 Bft)
07.07.2014 14:10 21,7 C 22,8 C 60 % 1017,4 hPa 0,0 l/m 2 min 0 min 4,1 UV-I 673 W/m 6,3 km/h (2 Bft)
07.07.2014 14:12 21,7 C 23,3 C 60 % 1017,4 hPa 0,0 l/m 2 min 0 min 4,1 UV-I 691 W/m 6,3 km/h (2 Bft)
07.07.2014 14:14 21,7 C 24,4 C 60 % 1017,3 hPa 0,0 l/m 2 min 0 min 4,3 UV-I 726 W/m 2,1 km/h (1 Bft)
07.07.2014 14:16 21,9 C 24,4 C 62 % 1017,3 hPa 0,0 l/m 2 min 0 min 4,0 UV-I 649 W/m 12,6 km/h (3 Bft)
07.07.2014 14:18 22,0 C 24,4 C 60 % 1017,3 hPa 0,0 l/m 2 min 0 min 3,9 UV-I 636 W/m 12,6 km/h (3 Bft)
07.07.2014 14:20 21,7 C 23,9 C 62 % 1017,4 hPa 0,0 l/m 2 min 0 min 4,1 UV-I 682 W/m 10,5 km/h (2 Bft)
07.07.2014 14:22 21,6 C 23,9 C 62 % 1017,3 hPa 0,0 l/m 2 min 0 min 4,0 UV-I 663 W/m 8,4 km/h (2 Bft)
07.07.2014 14:24 21,7 C 23,3 C 65 % 1017,4 hPa 0,0 l/m 2 min 0 min 4,2 UV-I 714 W/m 10,5 km/h (2 Bft)
07.07.2014 14:26 22,2 C 23,9 C 65 % 1017,4 hPa 0,0 l/m 2 min 0 min 4,3 UV-I 733 W/m 8,4 km/h (2 Bft)
07.07.2014 14:28 22,4 C 23,3 C 59 % 1017,4 hPa 0,0 l/m 2 min 0 min 4,3 UV-I 789 W/m 10,5 km/h (2 Bft)
07.07.2014 14:30 22,1 C 23,3 C 57 % 1017,4 hPa 0,0 l/m 2 min 0 min 4,4 UV-I 759 W/m 10,5 km/h (2 Bft)
07.07.2014 14:32 21,8 C 23,3 C 59 % 1017,4 hPa 0,0 l/m 2 min 0 min 4,0 UV-I 657 W/m 8,4 km/h (2 Bft)
07.07.2014 14:34 21,6 C 22,8 C 59 % 1017,4 hPa 0,0 l/m 2 min 0 min 3,9 UV-I 673 W/m 10,5 km/h (2 Bft)
07.07.2014 14:36 21,4 C 22,8 C 59 % 1017,3 hPa 0,0 l/m 2 min 0 min 4,1 UV-I 729 W/m 8,4 km/h (2 Bft)
07.07.2014 14:38 21,3 C 22,8 C 61 % 1017,4 hPa 0,0 l/m 2 min 0 min 3,0 UV-I 434 W/m 8,4 km/h (2 Bft)
07.07.2014 14:40 21,3 C 22,8 C 61 % 1017,4 hPa 0,0 l/m 2 min 0 min 3,2 UV-I 480 W/m 6,3 km/h (2 Bft)
07.07.2014 14:42 21,6 C 22,8 C 61 % 1017,3 hPa 0,0 l/m 2 min 0 min 4,0 UV-I 668 W/m 8,4 km/h (2 Bft)
07.07.2014 14:44 21,4 C 22,8 C 61 % 1017,3 hPa 0,0 l/m 2 min 0 min 4,3 UV-I 645 W/m 0,0 km/h (0 Bft)
07.07.2014 14:46 21,6 C 22,8 C 60 % 1017,2 hPa 0,0 l/m 2 min 0 min 3,3 UV-I 443 W/m 10,5 km/h (2 Bft)
07.07.2014 14:48 21,3 C 22,2 C 59 % 1017,2 hPa 0,0 l/m 2 min 0 min 3,0 UV-I 448 W/m 10,5 km/h (2 Bft)
07.07.2014 14:50 21,5 C 21,7 C 63 % 1017,2 hPa 0,0 l/m 0 min 0 min 2,8 UV-I 385 W/m 6,3 km/h (2 Bft)
07.07.2014 14:52 21,6 C 22,2 C 59 % 1017,2 hPa 0,0 l/m 0 min 0 min 3,4 UV-I 388 W/m 6,3 km/h (2 Bft)
07.07.2014 14:54 21,9 C 22,8 C 59 % 1017,2 hPa 0,0 l/m 2 min 0 min 4,4 UV-I 788 W/m 6,3 km/h (2 Bft)
07.07.2014 14:56 22,4 C 22,8 C 58 % 1017,1 hPa 0,0 l/m 2 min 0 min 4,4 UV-I 773 W/m 8,4 km/h (2 Bft)
07.07.2014 14:58 22,7 C 23,3 C 59 % 1017,1 hPa 0,0 l/m 2 min 0 min 4,5 UV-I 761 W/m 10,5 km/h (2 Bft)
07.07.2014 15:00 23,0 C 23,3 C 59 % 1017,1 hPa 0,0 l/m 2 min 0 min 4,4 UV-I 768 W/m 2,1 km/h (1 Bft)
07.07.2014 15:02 22,9 C 23,9 C 58 % 1017,1 hPa 0,0 l/m 2 min 0 min 4,4 UV-I 773 W/m 8,4 km/h (2 Bft)
07.07.2014 15:04 22,8 C 23,9 C 60 % 1017,1 hPa 0,0 l/m 2 min 0 min 4,3 UV-I 791 W/m 10,5 km/h (2 Bft)
07.07.2014 15:06 22,8 C 23,9 C 59 % 1017,1 hPa 0,0 l/m 2 min 0 min 4,3 UV-I 795 W/m 12,6 km/h (3 Bft)
07.07.2014 15:08 22,4 C 23,3 C 57 % 1017,1 hPa 0,0 l/m 2 min 0 min 4,3 UV-I 791 W/m 16,7 km/h (3 Bft)
07.07.2014 15:10 22,2 C 23,3 C 58 % 1017,0 hPa 0,0 l/m 2 min 0 min 4,1 UV-I 761 W/m 12,6 km/h (3 Bft)
07.07.2014 15:12 21,9 C 22,8 C 57 % 1017,0 hPa 0,0 l/m 2 min 0 min 4,1 UV-I 756 W/m 12,6 km/h (3 Bft)
07.07.2014 15:14 22,0 C 23,3 C 59 % 1016,9 hPa 0,0 l/m 2 min 0 min 4,0 UV-I 737 W/m 10,5 km/h (2 Bft)
07.07.2014 15:16 22,1 C 23,3 C 58 % 1017,0 hPa 0,0 l/m 2 min 0 min 3,7 UV-I 675 W/m 10,5 km/h (2 Bft)
07.07.2014 15:18 22,2 C 23,9 C 57 % 1016,9 hPa 0,0 l/m 2 min 0 min 3,7 UV-I 663 W/m 2,1 km/h (1 Bft)
07.07.2014 15:20 22,0 C 24,4 C 57 % 1016,9 hPa 0,0 l/m 2 min 0 min 3,6 UV-I 661 W/m 0,0 km/h (0 Bft)
07.07.2014 15:22 22,1 C 24,4 C 58 % 1016,9 hPa 0,0 l/m 2 min 0 min 3,4 UV-I 606 W/m 16,7 km/h (3 Bft)
07.07.2014 15:24 22,1 C 24,4 C 56 % 1016,9 hPa 0,0 l/m 2 min 0 min 3,4 UV-I 589 W/m 14,6 km/h (3 Bft)
07.07.2014 15:26 21,9 C 24,4 C 54 % 1016,9 hPa 0,0 l/m 2 min 0 min 3,3 UV-I 557 W/m 14,6 km/h (3 Bft)
07.07.2014 15:28 21,9 C 24,4 C 57 % 1016,9 hPa 0,0 l/m 2 min 0 min 3,2 UV-I 550 W/m 10,5 km/h (2 Bft)
07.07.2014 15:30 22,0 C 24,4 C 57 % 1016,9 hPa 0,0 l/m 2 min 0 min 3,2 UV-I 557 W/m 8,4 km/h (2 Bft)
07.07.2014 15:32 22,1 C 25,0 C 57 % 1016,9 hPa 0,0 l/m 2 min 0 min 3,3 UV-I 587 W/m 6,3 km/h (2 Bft)
07.07.2014 15:34 22,1 C 25,6 C 55 % 1016,9 hPa 0,0 l/m 2 min 0 min 3,3 UV-I 584 W/m 10,5 km/h (2 Bft)
07.07.2014 15:36 22,0 C 25,6 C 55 % 1016,9 hPa 0,0 l/m 2 min 0 min 3,3 UV-I 596 W/m 8,4 km/h (2 Bft)
07.07.2014 15:38 22,2 C 26,1 C 57 % 1016,8 hPa 0,0 l/m 2 min 0 min 3,1 UV-I 547 W/m 6,3 km/h (2 Bft)
07.07.2014 15:40 22,0 C 25,6 C 54 % 1016,9 hPa 0,0 l/m 2 min 0 min 3,5 UV-I 657 W/m 10,5 km/h (2 Bft)
07.07.2014 15:42 21,9 C 26,1 C 54 % 1016,8 hPa 0,0 l/m 2 min 0 min 3,6 UV-I 679 W/m 10,5 km/h (2 Bft)
07.07.2014 15:44 21,8 C 27,2 C 54 % 1016,8 hPa 0,0 l/m 2 min 0 min 3,6 UV-I 689 W/m 2,1 km/h (1 Bft)
07.07.2014 15:46 21,9 C 27,2 C 55 % 1016,7 hPa 0,0 l/m 2 min 0 min 3,5 UV-I 663 W/m 12,6 km/h (3 Bft)
07.07.2014 15:48 21,9 C 27,8 C 54 % 1016,7 hPa 0,0 l/m 2 min 0 min 3,7 UV-I 729 W/m 8,4 km/h (2 Bft)
07.07.2014 15:50 22,4 C 27,8 C 61 % 1016,7 hPa 0,0 l/m 2 min 0 min 3,6 UV-I 694 W/m 10,5 km/h (2 Bft)
07.07.2014 15:52 22,6 C 27,8 C 53 % 1016,7 hPa 0,0 l/m 2 min 0 min 3,5 UV-I 689 W/m 6,3 km/h (2 Bft)
07.07.2014 15:54 22,8 C 28,3 C 56 % 1016,8 hPa 0,0 l/m 2 min 0 min 3,6 UV-I 694 W/m 10,5 km/h (2 Bft)
07.07.2014 15:56 22,6 C 27,8 C 54 % 1016,8 hPa 0,0 l/m 2 min 0 min 3,7 UV-I 715 W/m 12,6 km/h (3 Bft)
07.07.2014 15:58 22,5 C 27,8 C 55 % 1016,8 hPa 0,0 l/m 2 min 0 min 3,6 UV-I 726 W/m 12,6 km/h (3 Bft)
07.07.2014 16:00 22,5 C 27,8 C 55 % 1016,7 hPa 0,0 l/m 2 min 0 min 3,4 UV-I 698 W/m 12,6 km/h (3 Bft)
07.07.2014 16:02 22,4 C 27,8 C 55 % 1016,8 hPa 0,0 l/m 2 min 0 min 3,4 UV-I 677 W/m 10,5 km/h (2 Bft)
07.07.2014 16:04 22,2 C 27,2 C 54 % 1016,7 hPa 0,0 l/m 2 min 0 min 3,1 UV-I 650 W/m 8,4 km/h (2 Bft)
07.07.2014 16:06 22,2 C 26,1 C 54 % 1016,7 hPa 0,0 l/m 2 min 0 min 2,8 UV-I 601 W/m 8,4 km/h (2 Bft)
07.07.2014 16:08 22,2 C 25,6 C 54 % 1016,7 hPa 0,0 l/m 2 min 0 min 2,9 UV-I 642 W/m 10,5 km/h (2 Bft)
07.07.2014 16:10 22,1 C 25,6 C 55 % 1016,6 hPa 0,0 l/m 2 min 0 min 3,1 UV-I 715 W/m 12,6 km/h (3 Bft)
07.07.2014 16:12 22,3 C 25,0 C 55 % 1016,6 hPa 0,0 l/m 2 min 0 min 3,1 UV-I 733 W/m 8,4 km/h (2 Bft)
07.07.2014 16:14 22,3 C 25,6 C 54 % 1016,6 hPa 0,0 l/m 2 min 0 min 3,0 UV-I 715 W/m 8,4 km/h (2 Bft)
07.07.2014 16:16 22,7 C 25,6 C 56 % 1016,5 hPa 0,0 l/m 2 min 0 min 2,9 UV-I 715 W/m 8,4 km/h (2 Bft)
07.07.2014 16:18 22,9 C 25,6 C 55 % 1016,5 hPa 0,0 l/m 0 min 0 min 1,8 UV-I 278 W/m 12,6 km/h (3 Bft)
07.07.2014 16:20 23,0 C 25,0 C 55 % 1016,4 hPa 0,0 l/m 0 min 0 min 3,0 UV-I 302 W/m 4,2 km/h (1 Bft)
07.07.2014 16:22 22,9 C 25,0 C 54 % 1016,4 hPa 0,0 l/m 2 min 0 min 2,9 UV-I 749 W/m 0,0 km/h (0 Bft)
07.07.2014 16:24 22,9 C 25,6 C 55 % 1016,4 hPa 0,0 l/m 2 min 0 min 2,9 UV-I 710 W/m 10,5 km/h (2 Bft)
07.07.2014 16:26 22,9 C 25,6 C 55 % 1016,4 hPa 0,0 l/m 2 min 0 min 2,9 UV-I 701 W/m 12,6 km/h (3 Bft)
07.07.2014 16:28 22,9 C 25,0 C 56 % 1016,4 hPa 0,0 l/m 2 min 0 min 2,8 UV-I 684 W/m 10,5 km/h (2 Bft)
07.07.2014 16:30 23,1 C 24,4 C 55 % 1016,4 hPa 0,0 l/m 2 min 0 min 2,7 UV-I 682 W/m 10,5 km/h (2 Bft)
07.07.2014 16:32 23,3 C 24,4 C 56 % 1016,3 hPa 0,0 l/m 2 min 0 min 2,5 UV-I 624 W/m 10,5 km/h (2 Bft)
07.07.2014 16:34 23,2 C 23,9 C 54 % 1016,3 hPa 0,0 l/m 2 min 0 min 2,2 UV-I 608 W/m 8,4 km/h (2 Bft)
07.07.2014 16:36 22,9 C 23,3 C 54 % 1016,4 hPa 0,0 l/m 0 min 0 min 1,5 UV-I 253 W/m 12,6 km/h (3 Bft)
07.07.2014 16:38 22,8 C 22,8 C 56 % 1016,3 hPa 0,0 l/m 0 min 0 min 1,5 UV-I 236 W/m 14,6 km/h (3 Bft)
07.07.2014 16:40 22,7 C 22,2 C 54 % 1016,3 hPa 0,0 l/m 0 min 0 min 1,5 UV-I 251 W/m 8,4 km/h (2 Bft)
07.07.2014 16:42 22,7 C 22,2 C 58 % 1016,2 hPa 0,0 l/m 0 min 0 min 1,9 UV-I 251 W/m 10,5 km/h (2 Bft)
07.07.2014 16:44 22,7 C 22,2 C 57 % 1016,2 hPa 0,0 l/m 0 min 0 min 1,7 UV-I 297 W/m 16,7 km/h (3 Bft)
07.07.2014 16:46 22,6 C 22,2 C 55 % 1016,2 hPa 0,0 l/m 0 min 0 min 1,7 UV-I 295 W/m 14,6 km/h (3 Bft)
07.07.2014 16:48 22,6 C 22,2 C 55 % 1016,2 hPa 0,0 l/m 0 min 0 min 2,7 UV-I 308 W/m 10,5 km/h (2 Bft)
07.07.2014 16:50 22,4 C 22,2 C 54 % 1016,1 hPa 0,0 l/m 2 min 0 min 2,6 UV-I 656 W/m 12,6 km/h (3 Bft)
07.07.2014 16:52 22,3 C 22,2 C 55 % 1016,1 hPa 0,0 l/m 2 min 0 min 2,7 UV-I 707 W/m 16,7 km/h (3 Bft)
07.07.2014 16:54 22,3 C 22,2 C 56 % 1016,1 hPa 0,0 l/m 2 min 0 min 2,6 UV-I 682 W/m 18,8 km/h (3 Bft)
07.07.2014 16:56 22,4 C 22,2 C 56 % 1016,1 hPa 0,0 l/m 2 min 0 min 2,4 UV-I 649 W/m 18,8 km/h (3 Bft)
07.07.2014 16:58 22,4 C 22,2 C 56 % 1016,0 hPa 0,0 l/m 2 min 0 min 2,3 UV-I 636 W/m 18,8 km/h (3 Bft)
07.07.2014 17:00 22,7 C 22,2 C 53 % 1016,1 hPa 0,0 l/m 2 min 0 min 2,2 UV-I 673 W/m 16,7 km/h (3 Bft)
07.07.2014 17:02 22,8 C 22,2 C 53 % 1015,9 hPa 0,0 l/m 2 min 0 min 1,9 UV-I 640 W/m 14,6 km/h (3 Bft)
07.07.2014 17:04 23,0 C 22,2 C 55 % 1016,0 hPa 0,0 l/m 2 min 0 min 1,7 UV-I 621 W/m 6,3 km/h (2 Bft)
07.07.2014 17:06 23,2 C 22,8 C 50 % 1015,9 hPa 0,0 l/m 2 min 0 min 1,6 UV-I 555 W/m 8,4 km/h (2 Bft)
07.07.2014 17:08 23,4 C 22,8 C 51 % 1015,9 hPa 0,0 l/m 2 min 0 min 1,4 UV-I 559 W/m 14,6 km/h (3 Bft)
07.07.2014 17:10 23,6 C 22,8 C 50 % 1015,9 hPa 0,0 l/m 2 min 0 min 1,4 UV-I 547 W/m 14,6 km/h (3 Bft)
07.07.2014 17:12 23,6 C 22,8 C 51 % 1015,9 hPa 0,0 l/m 2 min 0 min 1,3 UV-I 374 W/m 4,2 km/h (1 Bft)
07.07.2014 17:14 23,5 C 22,8 C 49 % 1015,8 hPa 0,0 l/m 2 min 0 min 1,2 UV-I 524 W/m 6,3 km/h (2 Bft)
07.07.2014 17:16 23,2 C 22,2 C 49 % 1015,8 hPa 0,0 l/m 2 min 0 min 1,2 UV-I 490 W/m 14,6 km/h (3 Bft)
07.07.2014 17:18 22,8 C 21,7 C 51 % 1015,7 hPa 0,0 l/m 2 min 0 min 1,1 UV-I 334 W/m 14,6 km/h (3 Bft)
07.07.2014 17:20 22,8 C 21,7 C 51 % 1015,8 hPa 0,0 l/m 0 min 0 min 1,0 UV-I 294 W/m 20,9 km/h (4 Bft)
07.07.2014 17:22 22,8 C 21,7 C 51 % 1015,8 hPa 0,0 l/m 2 min 0 min 0,9 UV-I 306 W/m 18,8 km/h (3 Bft)
07.07.2014 17:24 22,7 C 21,7 C 50 % 1015,9 hPa 0,0 l/m 0 min 0 min 0,8 UV-I 248 W/m 10,5 km/h (2 Bft)
07.07.2014 17:26 22,5 C 21,1 C 51 % 1015,9 hPa 0,0 l/m 0 min 0 min 0,8 UV-I 250 W/m 8,4 km/h (2 Bft)
07.07.2014 17:28 22,3 C 21,1 C 51 % 1016,0 hPa 0,0 l/m 0 min 0 min 0,8 UV-I 255 W/m 10,5 km/h (2 Bft)
07.07.2014 17:30 22,3 C 21,1 C 52 % 1015,9 hPa 0,0 l/m 0 min 0 min 0,8 UV-I 258 W/m 10,5 km/h (2 Bft)
07.07.2014 17:32 22,2 C 21,1 C 50 % 1015,9 hPa 0,0 l/m 2 min 0 min 0,8 UV-I 322 W/m 10,5 km/h (2 Bft)
07.07.2014 17:34 22,2 C 21,1 C 53 % 1015,9 hPa 0,0 l/m 0 min 0 min 0,8 UV-I 287 W/m 16,7 km/h (3 Bft)
07.07.2014 17:36 22,4 C 21,1 C 53 % 1015,8 hPa 0,0 l/m 0 min 0 min 0,7 UV-I 236 W/m 10,5 km/h (2 Bft)
07.07.2014 17:38 22,6 C 21,1 C 53 % 1015,7 hPa 0,0 l/m 0 min 0 min 0,7 UV-I 246 W/m 10,5 km/h (2 Bft)
07.07.2014 17:40 22,7 C 21,1 C 53 % 1015,8 hPa 0,0 l/m 0 min 0 min 0,7 UV-I 230 W/m 10,5 km/h (2 Bft)
07.07.2014 17:42 22,5 C 21,1 C 51 % 1015,7 hPa 0,0 l/m 0 min 0 min 0,6 UV-I 236 W/m 8,4 km/h (2 Bft)
07.07.2014 17:44 22,5 C 21,1 C 52 % 1015,8 hPa 0,0 l/m 0 min 0 min 0,6 UV-I 262 W/m 8,4 km/h (2 Bft)
07.07.2014 17:46 22,5 C 21,1 C 52 % 1015,7 hPa 0,0 l/m 0 min 0 min 0,6 UV-I 246 W/m 10,5 km/h (2 Bft)
07.07.2014 17:48 22,6 C 21,1 C 53 % 1015,7 hPa 0,0 l/m 0 min 0 min 0,6 UV-I 232 W/m 10,5 km/h (2 Bft)
07.07.2014 17:50 22,4 C 21,1 C 51 % 1015,7 hPa 0,0 l/m 2 min 0 min 0,6 UV-I 306 W/m 10,5 km/h (2 Bft)
07.07.2014 17:52 22,3 C 21,7 C 52 % 1015,6 hPa 0,0 l/m 2 min 0 min 0,7 UV-I 504 W/m 8,4 km/h (2 Bft)
07.07.2014 17:54 22,6 C 22,8 C 56 % 1015,6 hPa 0,0 l/m 2 min 0 min 0,7 UV-I 582 W/m 8,4 km/h (2 Bft)
07.07.2014 17:56 22,6 C 22,8 C 52 % 1015,7 hPa 0,0 l/m 2 min 0 min 0,7 UV-I 524 W/m 14,6 km/h (3 Bft)
07.07.2014 17:58 22,6 C 22,8 C 52 % 1015,6 hPa 0,0 l/m 2 min 0 min 0,7 UV-I 517 W/m 14,6 km/h (3 Bft)
07.07.2014 18:00 22,6 C 22,8 C 51 % 1015,6 hPa 0,0 l/m 2 min 0 min 0,7 UV-I 480 W/m 2,1 km/h (1 Bft)
07.07.2014 18:02 22,5 C 22,8 C 52 % 1015,6 hPa 0,0 l/m 2 min 0 min 0,7 UV-I 448 W/m 8,4 km/h (2 Bft)
07.07.2014 18:06 22,4 C 22,2 C 54 % 1015,6 hPa 0,0 l/m 2 min 0 min 0,6 UV-I 336 W/m 14,6 km/h (3 Bft)
07.07.2014 18:08 22,5 C 22,2 C 54 % 1015,6 hPa 0,0 l/m 2 min 0 min 0,7 UV-I 519 W/m 4,2 km/h (1 Bft)
07.07.2014 18:10 22,5 C 22,2 C 52 % 1015,5 hPa 0,0 l/m 2 min 0 min 0,7 UV-I 438 W/m 10,5 km/h (2 Bft)
07.07.2014 18:12 22,4 C 21,7 C 52 % 1015,6 hPa 0,0 l/m 2 min 0 min 0,7 UV-I 522 W/m 8,4 km/h (2 Bft)
07.07.2014 18:14 22,6 C 21,7 C 54 % 1015,5 hPa 0,0 l/m 2 min 0 min 0,7 UV-I 494 W/m 6,3 km/h (2 Bft)
07.07.2014 18:16 22,7 C 22,2 C 53 % 1015,5 hPa 0,0 l/m 2 min 0 min 0,7 UV-I 439 W/m 12,6 km/h (3 Bft)
07.07.2014 18:18 22,7 C 21,7 C 52 % 1015,5 hPa 0,0 l/m 2 min 0 min 0,6 UV-I 413 W/m 16,7 km/h (3 Bft)
07.07.2014 18:20 22,7 C 21,7 C 53 % 1015,5 hPa 0,0 l/m 2 min 0 min 0,6 UV-I 410 W/m 14,6 km/h (3 Bft)
07.07.2014 18:22 22,8 C 21,7 C 52 % 1015,5 hPa 0,0 l/m 2 min 0 min 0,6 UV-I 411 W/m 12,6 km/h (3 Bft)
07.07.2014 18:24 22,7 C 21,1 C 54 % 1015,5 hPa 0,0 l/m 2 min 0 min 0,5 UV-I 415 W/m 6,3 km/h (2 Bft)
07.07.2014 18:26 22,6 C 21,1 C 55 % 1015,4 hPa 0,0 l/m 2 min 0 min 0,5 UV-I 413 W/m 14,6 km/h (3 Bft)
07.07.2014 18:28 22,6 C 21,1 C 53 % 1015,5 hPa 0,0 l/m 2 min 0 min 0,5 UV-I 397 W/m 16,7 km/h (3 Bft)
07.07.2014 18:30 22,7 C 21,1 C 53 % 1015,5 hPa 0,0 l/m 2 min 0 min 0,0 UV-I 385 W/m 16,7 km/h (3 Bft)
07.07.2014 18:32 22,6 C 21,1 C 52 % 1015,4 hPa 0,0 l/m 2 min 0 min 0,0 UV-I 380 W/m 14,6 km/h (3 Bft)
07.07.2014 18:34 22,5 C 20,6 C 53 % 1015,4 hPa 0,0 l/m 2 min 0 min 0,0 UV-I 376 W/m 10,5 km/h (2 Bft)
07.07.2014 18:36 22,4 C 20,6 C 52 % 1015,4 hPa 0,0 l/m 2 min 0 min 0,0 UV-I 364 W/m 0,0 km/h (0 Bft)
07.07.2014 18:38 22,3 C 20,6 C 54 % 1015,4 hPa 0,0 l/m 2 min 0 min 0,0 UV-I 353 W/m 0,0 km/h (0 Bft)
07.07.2014 18:40 22,3 C 20,6 C 54 % 1015,4 hPa 0,0 l/m 2 min 0 min 0,0 UV-I 350 W/m 14,6 km/h (3 Bft)
07.07.2014 18:42 22,3 C 20,6 C 53 % 1015,4 hPa 0,0 l/m 2 min 0 min 0,0 UV-I 345 W/m 10,5 km/h (2 Bft)
07.07.2014 18:44 22,4 C 20,6 C 55 % 1015,4 hPa 0,0 l/m 2 min 0 min 0,0 UV-I 345 W/m 10,5 km/h (2 Bft)
07.07.2014 18:46 22,6 C 20,6 C 55 % 1015,4 hPa 0,0 l/m 2 min 0 min 0,0 UV-I 338 W/m 14,6 km/h (3 Bft)
07.07.2014 18:48 22,5 C 20,6 C 53 % 1015,4 hPa 0,0 l/m 2 min 0 min 0,0 UV-I 332 W/m 10,5 km/h (2 Bft)
07.07.2014 18:50 22,5 C 20,6 C 54 % 1015,3 hPa 0,0 l/m 2 min 0 min 0,0 UV-I 330 W/m 12,6 km/h (3 Bft)
07.07.2014 18:52 22,5 C 20,6 C 53 % 1015,3 hPa 0,0 l/m 2 min 0 min 0,0 UV-I 309 W/m 16,7 km/h (3 Bft)
07.07.2014 18:54 22,4 C 20,6 C 53 % 1015,3 hPa 0,0 l/m 2 min 0 min 0,0 UV-I 330 W/m 8,4 km/h (2 Bft)
07.07.2014 18:56 22,4 C 20,6 C 54 % 1015,3 hPa 0,0 l/m 2 min 0 min 0,0 UV-I 332 W/m 8,4 km/h (2 Bft)
07.07.2014 18:58 22,4 C 20,6 C 53 % 1015,4 hPa 0,0 l/m 2 min 0 min 0,0 UV-I 336 W/m 12,6 km/h (3 Bft)
07.07.2014 19:00 22,5 C 20,6 C 55 % 1015,4 hPa 0,0 l/m 2 min 0 min 0,0 UV-I 339 W/m 12,6 km/h (3 Bft)
07.07.2014 19:02 22,5 C 20,6 C 55 % 1015,5 hPa 0,0 l/m 2 min 0 min 0,0 UV-I 352 W/m 12,6 km/h (3 Bft)
07.07.2014 19:04 22,5 C 21,1 C 55 % 1015,5 hPa 0,0 l/m 2 min 0 min 0,0 UV-I 353 W/m 10,5 km/h (2 Bft)
07.07.2014 19:06 22,4 C 21,1 C 54 % 1015,5 hPa 0,0 l/m 2 min 0 min 0,0 UV-I 330 W/m 8,4 km/h (2 Bft)
07.07.2014 19:08 22,4 C 21,1 C 55 % 1015,4 hPa 0,0 l/m 2 min 0 min 0,0 UV-I 330 W/m 6,3 km/h (2 Bft)
07.07.2014 19:10 22,4 C 21,1 C 56 % 1015,5 hPa 0,0 l/m 2 min 0 min 0,0 UV-I 206 W/m 14,6 km/h (3 Bft)
07.07.2014 19:12 22,4 C 21,1 C 56 % 1015,4 hPa 0,0 l/m 2 min 0 min 0,0 UV-I 218 W/m 16,7 km/h (3 Bft)
07.07.2014 19:14 22,4 C 21,1 C 55 % 1015,5 hPa 0,0 l/m 2 min 0 min 0,0 UV-I 229 W/m 18,8 km/h (3 Bft)
07.07.2014 19:16 22,4 C 21,1 C 55 % 1015,5 hPa 0,0 l/m 2 min 0 min 0,0 UV-I 283 W/m 12,6 km/h (3 Bft)
07.07.2014 19:18 22,4 C 21,1 C 56 % 1015,4 hPa 0,0 l/m 0 min 0 min 0,0 UV-I 155 W/m 12,6 km/h (3 Bft)
07.07.2014 19:20 22,3 C 20,6 C 55 % 1015,4 hPa 0,0 l/m 0 min 0 min 0,0 UV-I 130 W/m 6,3 km/h (2 Bft)
07.07.2014 19:22 22,3 C 20,6 C 56 % 1015,4 hPa 0,0 l/m 2 min 0 min 0,0 UV-I 260 W/m 12,6 km/h (3 Bft)
07.07.2014 19:24 22,2 C 20,6 C 56 % 1015,4 hPa 0,0 l/m 2 min 0 min 0,0 UV-I 258 W/m 12,6 km/h (3 Bft)
07.07.2014 19:26 22,2 C 20,6 C 56 % 1015,4 hPa 0,0 l/m 2 min 0 min 0,0 UV-I 253 W/m 8,4 km/h (2 Bft)
07.07.2014 19:28 22,2 C 20,6 C 55 % 1015,3 hPa 0,0 l/m 2 min 0 min 0,0 UV-I 227 W/m 6,3 km/h (2 Bft)
07.07.2014 19:30 22,2 C 20,6 C 56 % 1015,3 hPa 0,0 l/m 2 min 0 min 0,0 UV-I 232 W/m 12,6 km/h (3 Bft)
07.07.2014 19:32 22,2 C 20,6 C 57 % 1015,4 hPa 0,0 l/m 0 min 0 min 0,0 UV-I 148 W/m 14,6 km/h (3 Bft)
07.07.2014 19:34 22,2 C 20,6 C 57 % 1015,4 hPa 0,0 l/m 0 min 0 min 0,0 UV-I 128 W/m 10,5 km/h (2 Bft)
07.07.2014 19:36 22,1 C 20,6 C 57 % 1015,4 hPa 0,0 l/m 2 min 0 min 0,0 UV-I 160 W/m 12,6 km/h (3 Bft)
07.07.2014 19:38 22,1 C 20,6 C 57 % 1015,4 hPa 0,0 l/m 0 min 0 min 0,0 UV-I 98 W/m 10,5 km/h (2 Bft)
07.07.2014 19:40 22,1 C 20,6 C 58 % 1015,3 hPa 0,0 l/m 0 min 0 min 0,0 UV-I 95 W/m 12,6 km/h (3 Bft)
07.07.2014 19:42 22,0 C 20,0 C 58 % 1015,4 hPa 0,0 l/m 0 min 0 min 0,0 UV-I 102 W/m 12,6 km/h (3 Bft)
07.07.2014 19:44 21,9 C 20,0 C 58 % 1015,3 hPa 0,0 l/m 0 min 0 min 0,0 UV-I 123 W/m 10,5 km/h (2 Bft)
07.07.2014 19:46 21,9 C 20,0 C 59 % 1015,3 hPa 0,0 l/m 2 min 0 min 0,0 UV-I 142 W/m 6,3 km/h (2 Bft)
07.07.2014 19:48 21,8 C 20,0 C 58 % 1015,3 hPa 0,0 l/m 0 min 0 min 0,0 UV-I 121 W/m 14,6 km/h (3 Bft)
07.07.2014 19:50 21,8 C 20,0 C 58 % 1015,4 hPa 0,0 l/m 0 min 0 min 0,0 UV-I 90 W/m 12,6 km/h (3 Bft)
07.07.2014 19:52 21,7 C 20,0 C 59 % 1015,3 hPa 0,0 l/m 0 min 0 min 0,0 UV-I 86 W/m 4,2 km/h (1 Bft)
07.07.2014 19:54 21,7 C 20,0 C 59 % 1015,3 hPa 0,0 l/m 0 min 0 min 0,0 UV-I 88 W/m 10,5 km/h (2 Bft)
07.07.2014 19:56 21,6 C 20,0 C 60 % 1015,3 hPa 0,0 l/m 0 min 0 min 0,0 UV-I 114 W/m 10,5 km/h (2 Bft)
07.07.2014 19:58 21,6 C 20,0 C 60 % 1015,3 hPa 0,0 l/m 0 min 0 min 0,0 UV-I 114 W/m 4,2 km/h (1 Bft)
07.07.2014 20:00 21,5 C 20,0 C 61 % 1015,3 hPa 0,0 l/m 0 min 0 min 0,0 UV-I 114 W/m 8,4 km/h (2 Bft)
07.07.2014 20:02 21,4 C 19,4 C 61 % 1015,3 hPa 0,0 l/m 0 min 0 min 0,0 UV-I 102 W/m 6,3 km/h (2 Bft)
07.07.2014 20:04 21,4 C 19,4 C 61 % 1015,3 hPa 0,0 l/m 0 min 0 min 0,0 UV-I 100 W/m 8,4 km/h (2 Bft)
07.07.2014 20:06 21,4 C 19,4 C 61 % 1015,3 hPa 0,0 l/m 0 min 0 min 0,0 UV-I 100 W/m 10,5 km/h (2 Bft)
07.07.2014 20:08 21,4 C 19,4 C 60 % 1015,2 hPa 0,0 l/m 0 min 0 min 0,0 UV-I 98 W/m 8,4 km/h (2 Bft)
07.07.2014 20:10 21,4 C 19,4 C 61 % 1015,2 hPa 0,0 l/m 0 min 0 min 0,0 UV-I 98 W/m 12,6 km/h (3 Bft)
07.07.2014 20:12 21,4 C 19,4 C 61 % 1015,2 hPa 0,0 l/m 0 min 0 min 0,0 UV-I 93 W/m 12,6 km/h (3 Bft)
07.07.2014 20:14 21,4 C 19,4 C 60 % 1015,2 hPa 0,0 l/m 0 min 0 min 0,0 UV-I 84 W/m 10,5 km/h (2 Bft)
07.07.2014 20:16 21,3 C 19,4 C 61 % 1015,2 hPa 0,0 l/m 0 min 0 min 0,0 UV-I 83 W/m 12,6 km/h (3 Bft)
07.07.2014 20:18 21,3 C 19,4 C 61 % 1015,1 hPa 0,0 l/m 0 min 0 min 0,0 UV-I 74 W/m 10,5 km/h (2 Bft)
07.07.2014 20:20 21,3 C 19,4 C 61 % 1015,1 hPa 0,0 l/m 0 min 0 min 0,0 UV-I 54 W/m 16,7 km/h (3 Bft)
07.07.2014 20:22 21,3 C 19,4 C 61 % 1015,1 hPa 0,0 l/m 0 min 0 min 0,0 UV-I 51 W/m 8,4 km/h (2 Bft)
07.07.2014 20:24 21,2 C 19,4 C 61 % 1015,1 hPa 0,0 l/m 0 min 0 min 0,0 UV-I 49 W/m 8,4 km/h (2 Bft)
07.07.2014 20:26 21,1 C 19,4 C 62 % 1015,1 hPa 0,0 l/m 0 min 0 min 0,0 UV-I 58 W/m 10,5 km/h (2 Bft)
07.07.2014 20:28 21,1 C 19,4 C 62 % 1015,1 hPa 0,0 l/m 0 min 0 min 0,0 UV-I 67 W/m 8,4 km/h (2 Bft)
07.07.2014 20:30 21,1 C 19,4 C 63 % 1015,1 hPa 0,0 l/m 0 min 0 min 0,0 UV-I 65 W/m 12,6 km/h (3 Bft)
07.07.2014 20:32 21,0 C 18,9 C 63 % 1015,1 hPa 0,0 l/m 0 min 0 min 0,0 UV-I 62 W/m 0,0 km/h (0 Bft)
07.07.2014 20:34 21,0 C 18,9 C 63 % 1015,1 hPa 0,0 l/m 0 min 0 min 0,0 UV-I 53 W/m 8,4 km/h (2 Bft)
07.07.2014 20:36 21,0 C 18,9 C 63 % 1015,1 hPa 0,0 l/m 0 min 0 min 0,0 UV-I 47 W/m 6,3 km/h (2 Bft)
07.07.2014 20:38 20,9 C 18,9 C 63 % 1015,1 hPa 0,0 l/m 0 min 0 min 0,0 UV-I 46 W/m 8,4 km/h (2 Bft)
07.07.2014 20:40 20,9 C 18,9 C 63 % 1015,1 hPa 0,0 l/m 0 min 0 min 0,0 UV-I 44 W/m 10,5 km/h (2 Bft)
07.07.2014 20:42 20,8 C 18,9 C 63 % 1015,0 hPa 0,0 l/m 0 min 0 min 0,0 UV-I 42 W/m 6,3 km/h (2 Bft)
07.07.2014 20:44 20,8 C 18,9 C 63 % 1015,1 hPa 0,0 l/m 0 min 0 min 0,0 UV-I 40 W/m 6,3 km/h (2 Bft)
07.07.2014 20:46 20,7 C 18,9 C 64 % 1015,1 hPa 0,0 l/m 0 min 0 min 0,0 UV-I 39 W/m 8,4 km/h (2 Bft)
07.07.2014 20:48 20,7 C 18,9 C 64 % 1015,0 hPa 0,0 l/m 0 min 0 min 0,0 UV-I 39 W/m 8,4 km/h (2 Bft)
07.07.2014 20:50 20,6 C 18,9 C 64 % 1015,0 hPa 0,0 l/m 0 min 0 min 0,0 UV-I 37 W/m 8,4 km/h (2 Bft)
07.07.2014 20:52 20,5 C 18,3 C 65 % 1015,0 hPa 0,0 l/m 0 min 0 min 0,0 UV-I 37 W/m 8,4 km/h (2 Bft)
07.07.2014 20:54 20,4 C 18,3 C 65 % 1015,0 hPa 0,0 l/m 0 min 0 min 0,0 UV-I 35 W/m 6,3 km/h (2 Bft)
07.07.2014 20:56 20,4 C 18,3 C 65 % 1015,0 hPa 0,0 l/m 0 min 0 min 0,0 UV-I 35 W/m 8,4 km/h (2 Bft)
07.07.2014 20:58 20,3 C 18,3 C 65 % 1015,0 hPa 0,0 l/m 0 min 0 min 0,0 UV-I 35 W/m 2,1 km/h (1 Bft)
07.07.2014 21:00 20,3 C 18,3 C 65 % 1014,9 hPa 0,0 l/m 0 min 0 min 0,0 UV-I 33 W/m 0,0 km/h (0 Bft)
07.07.2014 21:02 20,3 C 18,3 C 65 % 1014,9 hPa 0,0 l/m 0 min 0 min 0,0 UV-I 33 W/m 0,0 km/h (0 Bft)
07.07.2014 21:04 20,3 C 18,3 C 66 % 1015,0 hPa 0,0 l/m 0 min 0 min 0,0 UV-I 33 W/m 0,0 km/h (0 Bft)
07.07.2014 21:06 20,2 C 18,3 C 66 % 1015,0 hPa 0,0 l/m 0 min 0 min 0,0 UV-I 32 W/m 0,0 km/h (0 Bft)
07.07.2014 21:08 20,2 C 18,3 C 66 % 1014,9 hPa 0,0 l/m 0 min 0 min 0,0 UV-I 30 W/m 0,0 km/h (0 Bft)
07.07.2014 21:10 20,2 C 18,3 C 66 % 1014,9 hPa 0,0 l/m 0 min 0 min 0,0 UV-I 28 W/m 0,0 km/h (0 Bft)
07.07.2014 21:12 20,1 C 18,3 C 67 % 1014,8 hPa 0,0 l/m 0 min 0 min 0,0 UV-I 26 W/m 8,4 km/h (2 Bft)
07.07.2014 21:14 20,1 C 18,3 C 67 % 1014,8 hPa 0,0 l/m 0 min 0 min 0,0 UV-I 26 W/m 2,1 km/h (1 Bft)
07.07.2014 21:16 20,0 C 18,3 C 67 % 1014,8 hPa 0,0 l/m 0 min 0 min 0,0 UV-I 25 W/m 6,3 km/h (2 Bft)
07.07.2014 21:18 19,9 C 17,8 C 67 % 1014,7 hPa 0,0 l/m 0 min 0 min 0,0 UV-I 23 W/m 6,3 km/h (2 Bft)
07.07.2014 21:20 19,9 C 17,8 C 67 % 1014,7 hPa 0,0 l/m 0 min 0 min 0,0 UV-I 21 W/m 0,0 km/h (0 Bft)
07.07.2014 21:22 19,9 C 17,8 C 67 % 1014,7 hPa 0,0 l/m 0 min 0 min 0,0 UV-I 21 W/m 8,4 km/h (2 Bft)
07.07.2014 21:24 19,8 C 17,8 C 67 % 1014,7 hPa 0,0 l/m 0 min 0 min 0,0 UV-I 18 W/m 2,1 km/h (1 Bft)
07.07.2014 21:26 19,8 C 17,8 C 67 % 1014,7 hPa 0,0 l/m 0 min 0 min 0,0 UV-I 16 W/m 8,4 km/h (2 Bft)
07.07.2014 21:28 19,8 C 17,8 C 68 % 1014,7 hPa 0,0 l/m 0 min 0 min 0,0 UV-I 14 W/m 0,0 km/h (0 Bft)
07.07.2014 21:30 19,7 C 17,8 C 68 % 1014,7 hPa 0,0 l/m 0 min 0 min 0,0 UV-I 12 W/m 0,0 km/h (0 Bft)
07.07.2014 21:32 19,7 C 17,8 C 68 % 1014,7 hPa 0,0 l/m 0 min 0 min 0,0 UV-I 11 W/m 6,3 km/h (2 Bft)
07.07.2014 21:34 19,7 C 17,8 C 67 % 1014,7 hPa 0,0 l/m 0 min 0 min 0,0 UV-I 11 W/m 0,0 km/h (0 Bft)
07.07.2014 21:36 19,6 C 17,8 C 68 % 1014,8 hPa 0,0 l/m 0 min 0 min 0,0 UV-I 9 W/m 0,0 km/h (0 Bft)
07.07.2014 21:38 19,6 C 17,2 C 68 % 1014,8 hPa 0,0 l/m 0 min 0 min 0,0 UV-I 7 W/m 0,0 km/h (0 Bft)
07.07.2014 21:40 19,6 C 17,2 C 68 % 1014,8 hPa 0,0 l/m 0 min 0 min 0,0 UV-I 7 W/m 0,0 km/h (0 Bft)
07.07.2014 21:42 19,4 C 17,2 C 69 % 1014,8 hPa 0,0 l/m 0 min 0 min 0,0 UV-I 5 W/m 0,0 km/h (0 Bft)
07.07.2014 21:44 19,4 C 16,7 C 69 % 1014,8 hPa 0,0 l/m 0 min 0 min 0,0 UV-I 5 W/m 0,0 km/h (0 Bft)
07.07.2014 21:46 19,3 C 16,7 C 70 % 1014,8 hPa 0,0 l/m 0 min 0 min 0,0 UV-I 5 W/m 0,0 km/h (0 Bft)
07.07.2014 21:48 19,2 C 16,7 C 69 % 1014,8 hPa 0,0 l/m 0 min 0 min 0,0 UV-I 0 W/m 0,0 km/h (0 Bft)
07.07.2014 21:50 19,2 C 16,7 C 70 % 1014,8 hPa 0,0 l/m 0 min 0 min 0,0 UV-I 0 W/m 0,0 km/h (0 Bft)
07.07.2014 21:52 19,2 C 16,7 C 70 % 1014,8 hPa 0,0 l/m 0 min 0 min 0,0 UV-I 0 W/m 0,0 km/h (0 Bft)
07.07.2014 21:54 19,2 C 16,7 C 70 % 1014,9 hPa 0,0 l/m 0 min 0 min 0,0 UV-I 0 W/m 6,3 km/h (2 Bft)
07.07.2014 21:56 19,1 C 16,7 C 70 % 1014,9 hPa 0,0 l/m 0 min 0 min 0,0 UV-I 0 W/m 6,3 km/h (2 Bft)
07.07.2014 21:58 19,1 C 16,7 C 70 % 1014,8 hPa 0,0 l/m 0 min 0 min 0,0 UV-I 0 W/m 6,3 km/h (2 Bft)
07.07.2014 22:00 19,2 C 16,7 C 70 % 1014,8 hPa 0,0 l/m 0 min 0 min 0,0 UV-I 0 W/m 8,4 km/h (2 Bft)
07.07.2014 22:02 19,1 C 16,7 C 70 % 1014,8 hPa 0,0 l/m 0 min 0 min 0,0 UV-I 0 W/m 8,4 km/h (2 Bft)
07.07.2014 22:04 19,1 C 17,2 C 70 % 1014,8 hPa 0,0 l/m 0 min 0 min 0,0 UV-I 0 W/m 10,5 km/h (2 Bft)
07.07.2014 22:06 19,1 C 17,2 C 70 % 1014,8 hPa 0,0 l/m 0 min 0 min 0,0 UV-I 0 W/m 10,5 km/h (2 Bft)
07.07.2014 22:08 19,1 C 17,2 C 71 % 1014,8 hPa 0,0 l/m 0 min 0 min 0,0 UV-I 0 W/m 8,4 km/h (2 Bft)
07.07.2014 22:10 19,0 C 17,2 C 71 % 1014,8 hPa 0,0 l/m 0 min 0 min 0,0 UV-I 0 W/m 6,3 km/h (2 Bft)
07.07.2014 22:12 18,9 C 17,2 C 71 % 1014,8 hPa 0,0 l/m 0 min 0 min 0,0 UV-I 0 W/m 8,4 km/h (2 Bft)
07.07.2014 22:14 18,9 C 16,7 C 72 % 1014,8 hPa 0,0 l/m 0 min 0 min 0,0 UV-I 0 W/m 10,5 km/h (2 Bft)
07.07.2014 22:16 18,8 C 16,7 C 72 % 1014,8 hPa 0,0 l/m 0 min 0 min 0,0 UV-I 0 W/m 10,5 km/h (2 Bft)
07.07.2014 22:18 18,7 C 16,7 C 72 % 1014,8 hPa 0,0 l/m 0 min 0 min 0,0 UV-I 0 W/m 6,3 km/h (2 Bft)
07.07.2014 22:20 18,7 C 16,7 C 72 % 1014,7 hPa 0,0 l/m 0 min 0 min 0,0 UV-I 0 W/m 0,0 km/h (0 Bft)
07.07.2014 22:22 18,6 C 16,7 C 73 % 1014,8 hPa 0,0 l/m 0 min 0 min 0,0 UV-I 0 W/m 0,0 km/h (0 Bft)
07.07.2014 22:24 18,5 C 16,7 C 74 % 1014,8 hPa 0,0 l/m 0 min 0 min 0,0 UV-I 0 W/m 2,1 km/h (1 Bft)
07.07.2014 22:26 18,5 C 16,7 C 74 % 1014,7 hPa 0,0 l/m 0 min 0 min 0,0 UV-I 0 W/m 0,0 km/h (0 Bft)
07.07.2014 22:28 18,4 C 16,7 C 74 % 1014,7 hPa 0,0 l/m 0 min 0 min 0,0 UV-I 0 W/m 6,3 km/h (2 Bft)
07.07.2014 22:30 18,4 C 16,1 C 74 % 1014,7 hPa 0,0 l/m 0 min 0 min 0,0 UV-I 0 W/m 0,0 km/h (0 Bft)
07.07.2014 22:32 18,3 C 16,1 C 75 % 1014,7 hPa 0,0 l/m 0 min 0 min 0,0 UV-I 0 W/m 0,0 km/h (0 Bft)
07.07.2014 22:34 18,2 C 16,1 C 75 % 1014,7 hPa 0,0 l/m 0 min 0 min 0,0 UV-I 0 W/m 2,1 km/h (1 Bft)
07.07.2014 22:36 18,1 C 16,1 C 76 % 1014,6 hPa 0,0 l/m 0 min 0 min 0,0 UV-I 0 W/m 6,3 km/h (2 Bft)
07.07.2014 22:38 18,0 C 16,1 C 76 % 1014,7 hPa 0,0 l/m 0 min 0 min 0,0 UV-I 0 W/m 6,3 km/h (2 Bft)
07.07.2014 22:40 18,0 C 16,1 C 76 % 1014,7 hPa 0,0 l/m 0 min 0 min 0,0 UV-I 0 W/m 2,1 km/h (1 Bft)
07.07.2014 22:42 18,1 C 16,1 C 76 % 1014,6 hPa 0,0 l/m 0 min 0 min 0,0 UV-I 0 W/m 0,0 km/h (0 Bft)
07.07.2014 22:44 18,1 C 16,1 C 76 % 1014,7 hPa 0,0 l/m 0 min 0 min 0,0 UV-I 0 W/m 6,3 km/h (2 Bft)
07.07.2014 22:46 18,0 C 16,1 C 76 % 1014,6 hPa 0,0 l/m 0 min 0 min 0,0 UV-I 0 W/m 2,1 km/h (1 Bft)
07.07.2014 22:48 17,9 C 15,6 C 77 % 1014,6 hPa 0,0 l/m 0 min 0 min 0,0 UV-I 0 W/m 6,3 km/h (2 Bft)
07.07.2014 22:50 17,9 C 16,1 C 77 % 1014,6 hPa 0,0 l/m 0 min 0 min 0,0 UV-I 0 W/m 2,1 km/h (1 Bft)
07.07.2014 22:52 17,8 C 16,1 C 77 % 1014,6 hPa 0,0 l/m 0 min 0 min 0,0 UV-I 0 W/m 0,0 km/h (0 Bft)
07.07.2014 22:54 17,8 C 15,6 C 78 % 1014,6 hPa 0,0 l/m 0 min 0 min 0,0 UV-I 0 W/m 0,0 km/h (0 Bft)
07.07.2014 22:56 17,7 C 15,6 C 78 % 1014,6 hPa 0,0 l/m 0 min 0 min 0,0 UV-I 0 W/m 0,0 km/h (0 Bft)
07.07.2014 22:58 17,7 C 15,6 C 79 % 1014,6 hPa 0,0 l/m 0 min 0 min 0,0 UV-I 0 W/m 0,0 km/h (0 Bft)
07.07.2014 23:00 17,6 C 15,6 C 78 % 1014,5 hPa 0,0 l/m 0 min 0 min 0,0 UV-I 0 W/m 0,0 km/h (0 Bft)
07.07.2014 23:02 17,6 C 15,6 C 78 % 1014,5 hPa 0,0 l/m 0 min 0 min 0,0 UV-I 0 W/m 4,2 km/h (1 Bft)
07.07.2014 23:04 17,6 C 15,6 C 78 % 1014,5 hPa 0,0 l/m 0 min 0 min 0,0 UV-I 0 W/m 2,1 km/h (1 Bft)
07.07.2014 23:06 17,6 C 15,6 C 78 % 1014,5 hPa 0,0 l/m 0 min 0 min 0,0 UV-I 0 W/m 0,0 km/h (0 Bft)
07.07.2014 23:08 17,6 C 15,6 C 78 % 1014,4 hPa 0,0 l/m 0 min 0 min 0,0 UV-I 0 W/m 6,3 km/h (2 Bft)
07.07.2014 23:10 17,6 C 16,1 C 78 % 1014,4 hPa 0,0 l/m 0 min 0 min 0,0 UV-I 0 W/m 6,3 km/h (2 Bft)
07.07.2014 23:12 17,6 C 16,1 C 78 % 1014,4 hPa 0,0 l/m 0 min 0 min 0,0 UV-I 0 W/m 2,1 km/h (1 Bft)
07.07.2014 23:14 17,6 C 16,1 C 78 % 1014,4 hPa 0,0 l/m 0 min 0 min 0,0 UV-I 0 W/m 2,1 km/h (1 Bft)
07.07.2014 23:16 17,6 C 16,1 C 78 % 1014,3 hPa 0,0 l/m 0 min 0 min 0,0 UV-I 0 W/m 6,3 km/h (2 Bft)
07.07.2014 23:18 17,7 C 16,1 C 78 % 1014,3 hPa 0,0 l/m 0 min 0 min 0,0 UV-I 0 W/m 0,0 km/h (0 Bft)
07.07.2014 23:20 17,7 C 16,1 C 78 % 1014,4 hPa 0,0 l/m 0 min 0 min 0,0 UV-I 0 W/m 0,0 km/h (0 Bft)
07.07.2014 23:22 17,7 C 16,1 C 78 % 1014,3 hPa 0,0 l/m 0 min 0 min 0,0 UV-I 0 W/m 0,0 km/h (0 Bft)
07.07.2014 23:24 17,7 C 16,1 C 78 % 1014,2 hPa 0,0 l/m 0 min 0 min 0,0 UV-I 0 W/m 0,0 km/h (0 Bft)
07.07.2014 23:26 17,7 C 16,1 C 78 % 1014,3 hPa 0,0 l/m 0 min 0 min 0,0 UV-I 0 W/m 0,0 km/h (0 Bft)
07.07.2014 23:28 17,7 C 16,1 C 78 % 1014,4 hPa 0,0 l/m 0 min 0 min 0,0 UV-I 0 W/m 0,0 km/h (0 Bft)
07.07.2014 23:30 17,7 C 16,1 C 79 % 1014,3 hPa 0,0 l/m 0 min 0 min 0,0 UV-I 0 W/m 0,0 km/h (0 Bft)
07.07.2014 23:32 17,7 C 16,1 C 79 % 1014,4 hPa 0,0 l/m 0 min 0 min 0,0 UV-I 0 W/m 0,0 km/h (0 Bft)
07.07.2014 23:34 17,7 C 16,1 C 79 % 1014,3 hPa 0,0 l/m 0 min 0 min 0,0 UV-I 0 W/m 2,1 km/h (1 Bft)
07.07.2014 23:36 17,7 C 16,1 C 78 % 1014,0 hPa 0,0 l/m 0 min 0 min 0,0 UV-I 0 W/m 0,0 km/h (0 Bft)
07.07.2014 23:38 17,7 C 16,1 C 78 % 1014,0 hPa 0,0 l/m 0 min 0 min 0,0 UV-I 0 W/m 0,0 km/h (0 Bft)
07.07.2014 23:40 17,7 C 16,1 C 78 % 1014,1 hPa 0,0 l/m 0 min 0 min 0,0 UV-I 0 W/m 0,0 km/h (0 Bft)
07.07.2014 23:42 17,7 C 16,1 C 78 % 1014,1 hPa 0,0 l/m 0 min 0 min 0,0 UV-I 0 W/m 0,0 km/h (0 Bft)
07.07.2014 23:44 17,7 C 16,1 C 78 % 1014,1 hPa 0,0 l/m 0 min 0 min 0,0 UV-I 0 W/m 0,0 km/h (0 Bft)
07.07.2014 23:46 17,7 C 16,1 C 78 % 1014,1 hPa 0,0 l/m 0 min 0 min 0,0 UV-I 0 W/m 0,0 km/h (0 Bft)
07.07.2014 23:48 17,7 C 16,1 C 78 % 1014,0 hPa 0,0 l/m 0 min 0 min 0,0 UV-I 0 W/m 0,0 km/h (0 Bft)
07.07.2014 23:50 17,7 C 16,1 C 78 % 1014,1 hPa 0,0 l/m 0 min 0 min 0,0 UV-I 0 W/m 2,1 km/h (1 Bft)
07.07.2014 23:52 17,6 C 16,1 C 78 % 1014,1 hPa 0,0 l/m 0 min 0 min 0,0 UV-I 0 W/m 0,0 km/h (0 Bft)
07.07.2014 23:54 17,6 C 16,1 C 78 % 1014,2 hPa 0,0 l/m 0 min 0 min 0,0 UV-I 0 W/m 0,0 km/h (0 Bft)
07.07.2014 23:56 17,6 C 16,1 C 79 % 1014,3 hPa 0,0 l/m 0 min 0 min 0,0 UV-I 0 W/m 0,0 km/h (0 Bft)
07.07.2014 23:58 17,6 C 16,1 C 79 % 1014,4 hPa 0,0 l/m 0 min 0 min 0,0 UV-I 0 W/m 0,0 km/h (0 Bft)
_ Min-Zeit 05:44 05:44 17:14 00:00 - - - - - 00:06
Minimum _ 13,0 C 11,7 C 49 % 1011,1 hPa - - - - - 0,0 km/h (0 Bft)
_ Max-Zeit 17:14 15:54 03:22 12:08 00:00 06:58 00:00 12:50 12:50 08:04
Maximum _ 23,7 C 28,3 C 98 % 1017,8 hPa 0,0 l/m 2 min 0 min 5,9 UV-I 986 W/m 23,0 km/h
W-NW (4 Bft)
Durchschnitt _ 18,2 C 17,7 C 76 % 1015,5 hPa #0,0 l/m #11:22 h #0 min. 2,8 UV-I 417 W/m 10,2 km/h (2 Bft)
© 2014 W. Hausmann